<?xml version="1.0" encoding="UTF-8" standalone="no" ?>
<gpx xmlns="http://www.topografix.com/GPX/1/1" xmlns:xsi="http://www.w3.org/2001/XMLSchema-instance" xsi:schemaLocation="http://www.topografix.com/GPX/1/1 http://www.topografix.com/GPX/1/1/gpx.xsd" version="1.1" creator="VisuGPX - https://www.visugpx.com">
  <metadata>
    <name>028SG77-8202686</name>
    <desc><![CDATA[
]]></desc>
  </metadata>
  <trk>
    <name><![CDATA[028SG77-8202686]]></name>
    <trkseg>
      <trkpt lat="46.69878" lon="-1.93429">
        <ele>4</ele>
        <time>2018-03-18T21:48:04Z</time>
      </trkpt>
      <trkpt lat="46.69895" lon="-1.93414">
        <ele>4</ele>
        <time>2018-03-18T21:49:04Z</time>
      </trkpt>
      <trkpt lat="46.69919" lon="-1.93404">
        <ele>3</ele>
        <time>2018-03-18T21:50:04Z</time>
      </trkpt>
      <trkpt lat="46.69956" lon="-1.93401">
        <ele>3</ele>
        <time>2018-03-18T21:51:04Z</time>
      </trkpt>
      <trkpt lat="46.69974" lon="-1.93384">
        <ele>3</ele>
        <time>2018-03-18T21:52:04Z</time>
      </trkpt>
      <trkpt lat="46.69984" lon="-1.9338">
        <ele>3</ele>
        <time>2018-03-18T21:53:04Z</time>
      </trkpt>
      <trkpt lat="46.70018" lon="-1.93395">
        <ele>3</ele>
        <time>2018-03-18T21:54:04Z</time>
      </trkpt>
      <trkpt lat="46.70034" lon="-1.93411">
        <ele>3</ele>
        <time>2018-03-18T21:55:04Z</time>
      </trkpt>
      <trkpt lat="46.70045" lon="-1.93416">
        <ele>2</ele>
        <time>2018-03-18T21:56:04Z</time>
      </trkpt>
      <trkpt lat="46.70048" lon="-1.93421">
        <ele>2</ele>
        <time>2018-03-18T21:57:04Z</time>
      </trkpt>
      <trkpt lat="46.70055" lon="-1.93423">
        <ele>2</ele>
        <time>2018-03-18T21:58:04Z</time>
      </trkpt>
      <trkpt lat="46.70062" lon="-1.93421">
        <ele>2</ele>
        <time>2018-03-18T21:59:04Z</time>
      </trkpt>
      <trkpt lat="46.70066" lon="-1.93416">
        <ele>2</ele>
        <time>2018-03-18T22:00:04Z</time>
      </trkpt>
      <trkpt lat="46.7009" lon="-1.93413">
        <ele>2</ele>
        <time>2018-03-18T22:01:04Z</time>
      </trkpt>
      <trkpt lat="46.70086" lon="-1.93406">
        <ele>2</ele>
        <time>2018-03-18T22:02:04Z</time>
      </trkpt>
      <trkpt lat="46.70113" lon="-1.93385">
        <ele>2</ele>
        <time>2018-03-18T22:03:04Z</time>
      </trkpt>
      <trkpt lat="46.70116" lon="-1.93375">
        <ele>2</ele>
        <time>2018-03-18T22:04:04Z</time>
      </trkpt>
      <trkpt lat="46.70124" lon="-1.93369">
        <ele>1</ele>
        <time>2018-03-18T22:05:04Z</time>
      </trkpt>
      <trkpt lat="46.70131" lon="-1.93369">
        <ele>2</ele>
        <time>2018-03-18T22:06:04Z</time>
      </trkpt>
      <trkpt lat="46.70142" lon="-1.93375">
        <ele>1</ele>
        <time>2018-03-18T22:07:04Z</time>
      </trkpt>
      <trkpt lat="46.70164" lon="-1.93377">
        <ele>1</ele>
        <time>2018-03-18T22:08:04Z</time>
      </trkpt>
      <trkpt lat="46.70166" lon="-1.93367">
        <ele>2</ele>
        <time>2018-03-18T22:09:04Z</time>
      </trkpt>
      <trkpt lat="46.70176" lon="-1.93363">
        <ele>2</ele>
        <time>2018-03-18T22:10:04Z</time>
      </trkpt>
      <trkpt lat="46.70197" lon="-1.93346">
        <ele>2</ele>
        <time>2018-03-18T22:11:04Z</time>
      </trkpt>
      <trkpt lat="46.70203" lon="-1.93339">
        <ele>2</ele>
        <time>2018-03-18T22:12:04Z</time>
      </trkpt>
      <trkpt lat="46.70205" lon="-1.93345">
        <ele>1</ele>
        <time>2018-03-18T22:13:04Z</time>
      </trkpt>
      <trkpt lat="46.70232" lon="-1.93304">
        <ele>1</ele>
        <time>2018-03-18T22:14:04Z</time>
      </trkpt>
      <trkpt lat="46.70232" lon="-1.93304">
        <ele>1</ele>
        <time>2018-03-18T22:15:04Z</time>
      </trkpt>
      <trkpt lat="46.70238" lon="-1.93293">
        <ele>2</ele>
        <time>2018-03-18T22:16:04Z</time>
      </trkpt>
      <trkpt lat="46.70253" lon="-1.93277">
        <ele>2</ele>
        <time>2018-03-18T22:17:04Z</time>
      </trkpt>
      <trkpt lat="46.70278" lon="-1.93262">
        <ele>2</ele>
        <time>2018-03-18T22:18:04Z</time>
      </trkpt>
      <trkpt lat="46.70298" lon="-1.93246">
        <ele>2</ele>
        <time>2018-03-18T22:19:04Z</time>
      </trkpt>
      <trkpt lat="46.70305" lon="-1.93235">
        <ele>2</ele>
        <time>2018-03-18T22:20:04Z</time>
      </trkpt>
      <trkpt lat="46.70308" lon="-1.93226">
        <ele>2</ele>
        <time>2018-03-18T22:21:04Z</time>
      </trkpt>
      <trkpt lat="46.70389" lon="-1.93248">
        <ele>3</ele>
        <time>2018-03-18T22:22:04Z</time>
      </trkpt>
      <trkpt lat="46.70432" lon="-1.93269">
        <ele>3</ele>
        <time>2018-03-18T22:23:04Z</time>
      </trkpt>
      <trkpt lat="46.70449" lon="-1.93272">
        <ele>3</ele>
        <time>2018-03-18T22:24:04Z</time>
      </trkpt>
      <trkpt lat="46.70471" lon="-1.9327">
        <ele>3</ele>
        <time>2018-03-18T22:25:04Z</time>
      </trkpt>
      <trkpt lat="46.7054" lon="-1.93222">
        <ele>5</ele>
        <time>2018-03-18T22:26:04Z</time>
      </trkpt>
      <trkpt lat="46.70562" lon="-1.93215">
        <ele>5</ele>
        <time>2018-03-18T22:27:04Z</time>
      </trkpt>
      <trkpt lat="46.70651" lon="-1.932">
        <ele>7</ele>
        <time>2018-03-18T22:28:04Z</time>
      </trkpt>
      <trkpt lat="46.70722" lon="-1.93216">
        <ele>8</ele>
        <time>2018-03-18T22:29:04Z</time>
      </trkpt>
      <trkpt lat="46.70749" lon="-1.93214">
        <ele>8</ele>
        <time>2018-03-18T22:30:04Z</time>
      </trkpt>
      <trkpt lat="46.70773" lon="-1.93201">
        <ele>8</ele>
        <time>2018-03-18T22:31:04Z</time>
      </trkpt>
      <trkpt lat="46.70811" lon="-1.93172">
        <ele>9</ele>
        <time>2018-03-18T22:32:04Z</time>
      </trkpt>
      <trkpt lat="46.70829" lon="-1.9317">
        <ele>9</ele>
        <time>2018-03-18T22:33:04Z</time>
      </trkpt>
      <trkpt lat="46.70957" lon="-1.93188">
        <ele>7</ele>
        <time>2018-03-18T22:34:04Z</time>
      </trkpt>
      <trkpt lat="46.71006" lon="-1.93182">
        <ele>7</ele>
        <time>2018-03-18T22:35:04Z</time>
      </trkpt>
      <trkpt lat="46.7103" lon="-1.93175">
        <ele>6</ele>
        <time>2018-03-18T22:36:04Z</time>
      </trkpt>
      <trkpt lat="46.71043" lon="-1.93165">
        <ele>7</ele>
        <time>2018-03-18T22:37:04Z</time>
      </trkpt>
      <trkpt lat="46.71142" lon="-1.9305">
        <ele>7</ele>
        <time>2018-03-18T22:38:04Z</time>
      </trkpt>
      <trkpt lat="46.71159" lon="-1.93036">
        <ele>8</ele>
        <time>2018-03-18T22:39:04Z</time>
      </trkpt>
      <trkpt lat="46.71169" lon="-1.93033">
        <ele>8</ele>
        <time>2018-03-18T22:40:04Z</time>
      </trkpt>
      <trkpt lat="46.71169" lon="-1.93033">
        <ele>8</ele>
        <time>2018-03-18T22:41:04Z</time>
      </trkpt>
      <trkpt lat="46.71229" lon="-1.93029">
        <ele>5</ele>
        <time>2018-03-18T22:42:04Z</time>
      </trkpt>
      <trkpt lat="46.7124" lon="-1.93023">
        <ele>5</ele>
        <time>2018-03-18T22:43:04Z</time>
      </trkpt>
      <trkpt lat="46.71248" lon="-1.9301">
        <ele>5</ele>
        <time>2018-03-18T22:44:04Z</time>
      </trkpt>
      <trkpt lat="46.71252" lon="-1.92996">
        <ele>5</ele>
        <time>2018-03-18T22:45:04Z</time>
      </trkpt>
      <trkpt lat="46.71262" lon="-1.9294">
        <ele>4</ele>
        <time>2018-03-18T22:46:04Z</time>
      </trkpt>
      <trkpt lat="46.7127" lon="-1.92871">
        <ele>3</ele>
        <time>2018-03-18T22:47:04Z</time>
      </trkpt>
      <trkpt lat="46.71307" lon="-1.9269">
        <ele>6</ele>
        <time>2018-03-18T22:48:04Z</time>
      </trkpt>
      <trkpt lat="46.71304" lon="-1.9264">
        <ele>8</ele>
        <time>2018-03-18T22:49:04Z</time>
      </trkpt>
      <trkpt lat="46.71307" lon="-1.92619">
        <ele>8</ele>
        <time>2018-03-18T22:50:04Z</time>
      </trkpt>
      <trkpt lat="46.71331" lon="-1.92519">
        <ele>8</ele>
        <time>2018-03-18T22:51:04Z</time>
      </trkpt>
      <trkpt lat="46.71332" lon="-1.92495">
        <ele>8</ele>
        <time>2018-03-18T22:52:04Z</time>
      </trkpt>
      <trkpt lat="46.71326" lon="-1.92419">
        <ele>9</ele>
        <time>2018-03-18T22:53:04Z</time>
      </trkpt>
      <trkpt lat="46.71319" lon="-1.92381">
        <ele>9</ele>
        <time>2018-03-18T22:54:04Z</time>
      </trkpt>
      <trkpt lat="46.7131" lon="-1.92355">
        <ele>9</ele>
        <time>2018-03-18T22:55:04Z</time>
      </trkpt>
      <trkpt lat="46.71347" lon="-1.92341">
        <ele>8</ele>
        <time>2018-03-18T22:56:04Z</time>
      </trkpt>
      <trkpt lat="46.71416" lon="-1.9232">
        <ele>5</ele>
        <time>2018-03-18T22:57:04Z</time>
      </trkpt>
      <trkpt lat="46.71425" lon="-1.92312">
        <ele>5</ele>
        <time>2018-03-18T22:58:04Z</time>
      </trkpt>
      <trkpt lat="46.71428" lon="-1.92303">
        <ele>5</ele>
        <time>2018-03-18T22:59:04Z</time>
      </trkpt>
      <trkpt lat="46.71474" lon="-1.92136">
        <ele>6</ele>
        <time>2018-03-18T23:00:04Z</time>
      </trkpt>
      <trkpt lat="46.71488" lon="-1.92069">
        <ele>6</ele>
        <time>2018-03-18T23:01:04Z</time>
      </trkpt>
      <trkpt lat="46.71515" lon="-1.919">
        <ele>8</ele>
        <time>2018-03-18T23:02:04Z</time>
      </trkpt>
      <trkpt lat="46.71537" lon="-1.91824">
        <ele>8</ele>
        <time>2018-03-18T23:03:04Z</time>
      </trkpt>
      <trkpt lat="46.71567" lon="-1.91742">
        <ele>7</ele>
        <time>2018-03-18T23:04:04Z</time>
      </trkpt>
      <trkpt lat="46.71629" lon="-1.91589">
        <ele>4</ele>
        <time>2018-03-18T23:05:04Z</time>
      </trkpt>
      <trkpt lat="46.71648" lon="-1.91568">
        <ele>4</ele>
        <time>2018-03-18T23:06:04Z</time>
      </trkpt>
      <trkpt lat="46.71738" lon="-1.91523">
        <ele>2</ele>
        <time>2018-03-18T23:07:04Z</time>
      </trkpt>
      <trkpt lat="46.71756" lon="-1.91507">
        <ele>2</ele>
        <time>2018-03-18T23:08:04Z</time>
      </trkpt>
      <trkpt lat="46.71766" lon="-1.9149">
        <ele>2</ele>
        <time>2018-03-18T23:09:04Z</time>
      </trkpt>
      <trkpt lat="46.71772" lon="-1.91461">
        <ele>2</ele>
        <time>2018-03-18T23:10:04Z</time>
      </trkpt>
      <trkpt lat="46.71779" lon="-1.91389">
        <ele>1</ele>
        <time>2018-03-18T23:11:04Z</time>
      </trkpt>
      <trkpt lat="46.71785" lon="-1.91363">
        <ele>1</ele>
        <time>2018-03-18T23:12:04Z</time>
      </trkpt>
      <trkpt lat="46.71819" lon="-1.91247">
        <ele>2</ele>
        <time>2018-03-18T23:13:04Z</time>
      </trkpt>
      <trkpt lat="46.71848" lon="-1.91108">
        <ele>2</ele>
        <time>2018-03-18T23:14:04Z</time>
      </trkpt>
      <trkpt lat="46.71853" lon="-1.91062">
        <ele>2</ele>
        <time>2018-03-18T23:15:04Z</time>
      </trkpt>
      <trkpt lat="46.71851" lon="-1.9102">
        <ele>3</ele>
        <time>2018-03-18T23:16:04Z</time>
      </trkpt>
      <trkpt lat="46.71826" lon="-1.90788">
        <ele>6</ele>
        <time>2018-03-18T23:17:04Z</time>
      </trkpt>
      <trkpt lat="46.71796" lon="-1.9066">
        <ele>5</ele>
        <time>2018-03-18T23:18:04Z</time>
      </trkpt>
      <trkpt lat="46.71792" lon="-1.90605">
        <ele>6</ele>
        <time>2018-03-18T23:19:04Z</time>
      </trkpt>
      <trkpt lat="46.71795" lon="-1.90567">
        <ele>7</ele>
        <time>2018-03-18T23:20:04Z</time>
      </trkpt>
      <trkpt lat="46.71841" lon="-1.9045">
        <ele>5</ele>
        <time>2018-03-18T23:21:04Z</time>
      </trkpt>
      <trkpt lat="46.71849" lon="-1.90419">
        <ele>4</ele>
        <time>2018-03-18T23:22:04Z</time>
      </trkpt>
      <trkpt lat="46.71853" lon="-1.90331">
        <ele>6</ele>
        <time>2018-03-18T23:23:04Z</time>
      </trkpt>
      <trkpt lat="46.71862" lon="-1.90319">
        <ele>6</ele>
        <time>2018-03-18T23:24:04Z</time>
      </trkpt>
      <trkpt lat="46.71862" lon="-1.90319">
        <ele>6</ele>
        <time>2018-03-18T23:25:04Z</time>
      </trkpt>
      <trkpt lat="46.71868" lon="-1.90309">
        <ele>6</ele>
        <time>2018-03-18T23:26:04Z</time>
      </trkpt>
      <trkpt lat="46.71881" lon="-1.90264">
        <ele>7</ele>
        <time>2018-03-18T23:27:04Z</time>
      </trkpt>
      <trkpt lat="46.71927" lon="-1.90241">
        <ele>6</ele>
        <time>2018-03-18T23:28:04Z</time>
      </trkpt>
      <trkpt lat="46.71942" lon="-1.90224">
        <ele>6</ele>
        <time>2018-03-18T23:29:04Z</time>
      </trkpt>
      <trkpt lat="46.71951" lon="-1.90202">
        <ele>6</ele>
        <time>2018-03-18T23:30:04Z</time>
      </trkpt>
      <trkpt lat="46.71954" lon="-1.90181">
        <ele>6</ele>
        <time>2018-03-18T23:31:04Z</time>
      </trkpt>
      <trkpt lat="46.71959" lon="-1.90132">
        <ele>6</ele>
        <time>2018-03-18T23:32:04Z</time>
      </trkpt>
      <trkpt lat="46.71969" lon="-1.90063">
        <ele>6</ele>
        <time>2018-03-18T23:33:04Z</time>
      </trkpt>
      <trkpt lat="46.72007" lon="-1.9">
        <ele>6</ele>
        <time>2018-03-18T23:34:04Z</time>
      </trkpt>
      <trkpt lat="46.72029" lon="-1.89957">
        <ele>7</ele>
        <time>2018-03-18T23:35:04Z</time>
      </trkpt>
      <trkpt lat="46.72036" lon="-1.89948">
        <ele>7</ele>
        <time>2018-03-18T23:36:04Z</time>
      </trkpt>
      <trkpt lat="46.7225" lon="-1.89771">
        <ele>7</ele>
        <time>2018-03-18T23:37:04Z</time>
      </trkpt>
      <trkpt lat="46.72257" lon="-1.89788">
        <ele>7</ele>
        <time>2018-03-18T23:38:04Z</time>
      </trkpt>
      <trkpt lat="46.72287" lon="-1.8987">
        <ele>6</ele>
        <time>2018-03-18T23:39:04Z</time>
      </trkpt>
      <trkpt lat="46.72287" lon="-1.8987">
        <ele>6</ele>
        <time>2018-03-18T23:40:04Z</time>
      </trkpt>
      <trkpt lat="46.72302" lon="-1.89911">
        <ele>6</ele>
        <time>2018-03-18T23:41:04Z</time>
      </trkpt>
      <trkpt lat="46.72323" lon="-1.89963">
        <ele>6</ele>
        <time>2018-03-18T23:42:04Z</time>
      </trkpt>
      <trkpt lat="46.72353" lon="-1.90008">
        <ele>5</ele>
        <time>2018-03-18T23:43:04Z</time>
      </trkpt>
      <trkpt lat="46.72454" lon="-1.90223">
        <ele>2</ele>
        <time>2018-03-18T23:44:04Z</time>
      </trkpt>
      <trkpt lat="46.72463" lon="-1.9024">
        <ele>2</ele>
        <time>2018-03-18T23:45:04Z</time>
      </trkpt>
      <trkpt lat="46.727" lon="-1.90471">
        <ele>1.3</ele>
        <time>2018-03-18T23:46:04Z</time>
      </trkpt>
      <trkpt lat="46.7273" lon="-1.90513">
        <ele>3.7</ele>
        <time>2018-03-18T23:47:04Z</time>
      </trkpt>
      <trkpt lat="46.72775" lon="-1.90554">
        <ele>1</ele>
        <time>2018-03-18T23:48:04Z</time>
      </trkpt>
      <trkpt lat="46.72824" lon="-1.90619">
        <ele>3</ele>
        <time>2018-03-18T23:49:04Z</time>
      </trkpt>
      <trkpt lat="46.73035" lon="-1.9093">
        <ele>1</ele>
        <time>2018-03-18T23:50:04Z</time>
      </trkpt>
      <trkpt lat="46.73119" lon="-1.91063">
        <ele>3</ele>
        <time>2018-03-18T23:51:04Z</time>
      </trkpt>
      <trkpt lat="46.73161" lon="-1.91118">
        <ele>5</ele>
        <time>2018-03-18T23:52:04Z</time>
      </trkpt>
      <trkpt lat="46.73195" lon="-1.9118">
        <ele>8</ele>
        <time>2018-03-18T23:53:04Z</time>
      </trkpt>
      <trkpt lat="46.73222" lon="-1.91239">
        <ele>9</ele>
        <time>2018-03-18T23:54:04Z</time>
      </trkpt>
      <trkpt lat="46.73322" lon="-1.91471">
        <ele>14</ele>
        <time>2018-03-18T23:55:04Z</time>
      </trkpt>
      <trkpt lat="46.73327" lon="-1.91492">
        <ele>14</ele>
        <time>2018-03-18T23:56:04Z</time>
      </trkpt>
      <trkpt lat="46.73336" lon="-1.91479">
        <ele>14</ele>
        <time>2018-03-18T23:57:04Z</time>
      </trkpt>
      <trkpt lat="46.73347" lon="-1.91437">
        <ele>13</ele>
        <time>2018-03-18T23:58:04Z</time>
      </trkpt>
      <trkpt lat="46.73355" lon="-1.91412">
        <ele>13</ele>
        <time>2018-03-18T23:59:04Z</time>
      </trkpt>
      <trkpt lat="46.73405" lon="-1.91325">
        <ele>11</ele>
        <time>2018-03-19T00:00:04Z</time>
      </trkpt>
      <trkpt lat="46.73405" lon="-1.91325">
        <ele>11</ele>
        <time>2018-03-19T00:01:04Z</time>
      </trkpt>
      <trkpt lat="46.73448" lon="-1.91249">
        <ele>10</ele>
        <time>2018-03-19T00:02:04Z</time>
      </trkpt>
      <trkpt lat="46.73452" lon="-1.91244">
        <ele>10</ele>
        <time>2018-03-19T00:03:04Z</time>
      </trkpt>
      <trkpt lat="46.73459" lon="-1.91242">
        <ele>10</ele>
        <time>2018-03-19T00:04:04Z</time>
      </trkpt>
      <trkpt lat="46.73467" lon="-1.91245">
        <ele>9</ele>
        <time>2018-03-19T00:05:04Z</time>
      </trkpt>
      <trkpt lat="46.73568" lon="-1.9135">
        <ele>7</ele>
        <time>2018-03-19T00:06:04Z</time>
      </trkpt>
      <trkpt lat="46.73618" lon="-1.91433">
        <ele>6</ele>
        <time>2018-03-19T00:07:04Z</time>
      </trkpt>
      <trkpt lat="46.73667" lon="-1.91516">
        <ele>6</ele>
        <time>2018-03-19T00:08:04Z</time>
      </trkpt>
      <trkpt lat="46.73753" lon="-1.9168">
        <ele>5</ele>
        <time>2018-03-19T00:09:04Z</time>
      </trkpt>
      <trkpt lat="46.73768" lon="-1.91717">
        <ele>5</ele>
        <time>2018-03-19T00:10:04Z</time>
      </trkpt>
      <trkpt lat="46.73776" lon="-1.91742">
        <ele>5</ele>
        <time>2018-03-19T00:11:04Z</time>
      </trkpt>
      <trkpt lat="46.7378" lon="-1.91772">
        <ele>5</ele>
        <time>2018-03-19T00:12:04Z</time>
      </trkpt>
      <trkpt lat="46.73782" lon="-1.91917">
        <ele>5</ele>
        <time>2018-03-19T00:13:04Z</time>
      </trkpt>
      <trkpt lat="46.73799" lon="-1.91889">
        <ele>5</ele>
        <time>2018-03-19T00:14:04Z</time>
      </trkpt>
      <trkpt lat="46.73869" lon="-1.91827">
        <ele>4</ele>
        <time>2018-03-19T00:15:04Z</time>
      </trkpt>
      <trkpt lat="46.73966" lon="-1.91728">
        <ele>5</ele>
        <time>2018-03-19T00:16:04Z</time>
      </trkpt>
      <trkpt lat="46.74007" lon="-1.91693">
        <ele>6</ele>
        <time>2018-03-19T00:17:04Z</time>
      </trkpt>
      <trkpt lat="46.74126" lon="-1.91601">
        <ele>5</ele>
        <time>2018-03-19T00:18:04Z</time>
      </trkpt>
      <trkpt lat="46.74207" lon="-1.91526">
        <ele>5</ele>
        <time>2018-03-19T00:19:04Z</time>
      </trkpt>
      <trkpt lat="46.743" lon="-1.91428">
        <ele>4</ele>
        <time>2018-03-19T00:20:04Z</time>
      </trkpt>
      <trkpt lat="46.74313" lon="-1.91424">
        <ele>4</ele>
        <time>2018-03-19T00:21:04Z</time>
      </trkpt>
      <trkpt lat="46.74344" lon="-1.91358">
        <ele>4</ele>
        <time>2018-03-19T00:22:04Z</time>
      </trkpt>
      <trkpt lat="46.74364" lon="-1.91323">
        <ele>4</ele>
        <time>2018-03-19T00:23:04Z</time>
      </trkpt>
      <trkpt lat="46.74364" lon="-1.91323">
        <ele>4</ele>
        <time>2018-03-19T00:24:04Z</time>
      </trkpt>
      <trkpt lat="46.74386" lon="-1.91292">
        <ele>3</ele>
        <time>2018-03-19T00:25:04Z</time>
      </trkpt>
      <trkpt lat="46.74465" lon="-1.91199">
        <ele>4</ele>
        <time>2018-03-19T00:26:04Z</time>
      </trkpt>
      <trkpt lat="46.74566" lon="-1.91075">
        <ele>3</ele>
        <time>2018-03-19T00:27:04Z</time>
      </trkpt>
      <trkpt lat="46.74575" lon="-1.91061">
        <ele>2</ele>
        <time>2018-03-19T00:28:04Z</time>
      </trkpt>
      <trkpt lat="46.74577" lon="-1.91044">
        <ele>3</ele>
        <time>2018-03-19T00:29:04Z</time>
      </trkpt>
      <trkpt lat="46.74574" lon="-1.91036">
        <ele>3</ele>
        <time>2018-03-19T00:30:04Z</time>
      </trkpt>
      <trkpt lat="46.74575" lon="-1.9103">
        <ele>3</ele>
        <time>2018-03-19T00:31:04Z</time>
      </trkpt>
      <trkpt lat="46.7458" lon="-1.91024">
        <ele>3</ele>
        <time>2018-03-19T00:32:04Z</time>
      </trkpt>
      <trkpt lat="46.74587" lon="-1.91024">
        <ele>3</ele>
        <time>2018-03-19T00:33:04Z</time>
      </trkpt>
      <trkpt lat="46.74597" lon="-1.91007">
        <ele>3</ele>
        <time>2018-03-19T00:34:04Z</time>
      </trkpt>
      <trkpt lat="46.746" lon="-1.90979">
        <ele>3</ele>
        <time>2018-03-19T00:35:04Z</time>
      </trkpt>
      <trkpt lat="46.74594" lon="-1.90953">
        <ele>3</ele>
        <time>2018-03-19T00:36:04Z</time>
      </trkpt>
      <trkpt lat="46.74579" lon="-1.90914">
        <ele>3</ele>
        <time>2018-03-19T00:37:04Z</time>
      </trkpt>
      <trkpt lat="46.74564" lon="-1.90883">
        <ele>4</ele>
        <time>2018-03-19T00:38:04Z</time>
      </trkpt>
      <trkpt lat="46.74551" lon="-1.90863">
        <ele>4</ele>
        <time>2018-03-19T00:39:04Z</time>
      </trkpt>
      <trkpt lat="46.74506" lon="-1.90802">
        <ele>5</ele>
        <time>2018-03-19T00:40:04Z</time>
      </trkpt>
      <trkpt lat="46.74486" lon="-1.90753">
        <ele>5</ele>
        <time>2018-03-19T00:41:04Z</time>
      </trkpt>
      <trkpt lat="46.74482" lon="-1.90727">
        <ele>5</ele>
        <time>2018-03-19T00:42:04Z</time>
      </trkpt>
      <trkpt lat="46.74487" lon="-1.90705">
        <ele>5</ele>
        <time>2018-03-19T00:43:04Z</time>
      </trkpt>
      <trkpt lat="46.74516" lon="-1.90663">
        <ele>4</ele>
        <time>2018-03-19T00:44:04Z</time>
      </trkpt>
      <trkpt lat="46.74518" lon="-1.90655">
        <ele>4</ele>
        <time>2018-03-19T00:45:04Z</time>
      </trkpt>
      <trkpt lat="46.74527" lon="-1.90642">
        <ele>4</ele>
        <time>2018-03-19T00:46:04Z</time>
      </trkpt>
      <trkpt lat="46.74538" lon="-1.90639">
        <ele>4</ele>
        <time>2018-03-19T00:47:04Z</time>
      </trkpt>
      <trkpt lat="46.74616" lon="-1.90577">
        <ele>2</ele>
        <time>2018-03-19T00:48:04Z</time>
      </trkpt>
      <trkpt lat="46.74682" lon="-1.90516">
        <ele>3</ele>
        <time>2018-03-19T00:49:04Z</time>
      </trkpt>
      <trkpt lat="46.74811" lon="-1.90417">
        <ele>4</ele>
        <time>2018-03-19T00:50:04Z</time>
      </trkpt>
      <trkpt lat="46.74825" lon="-1.90401">
        <ele>4</ele>
        <time>2018-03-19T00:51:04Z</time>
      </trkpt>
      <trkpt lat="46.74826" lon="-1.90394">
        <ele>4</ele>
        <time>2018-03-19T00:52:04Z</time>
      </trkpt>
      <trkpt lat="46.7483" lon="-1.90387">
        <ele>4</ele>
        <time>2018-03-19T00:53:04Z</time>
      </trkpt>
      <trkpt lat="46.74835" lon="-1.90386">
        <ele>4</ele>
        <time>2018-03-19T00:54:04Z</time>
      </trkpt>
      <trkpt lat="46.74839" lon="-1.90388">
        <ele>4</ele>
        <time>2018-03-19T00:55:04Z</time>
      </trkpt>
      <trkpt lat="46.74844" lon="-1.90396">
        <ele>4</ele>
        <time>2018-03-19T00:56:04Z</time>
      </trkpt>
      <trkpt lat="46.74843" lon="-1.90406">
        <ele>4</ele>
        <time>2018-03-19T00:57:04Z</time>
      </trkpt>
      <trkpt lat="46.7485" lon="-1.90407">
        <ele>4</ele>
        <time>2018-03-19T00:58:04Z</time>
      </trkpt>
      <trkpt lat="46.74917" lon="-1.90403">
        <ele>4</ele>
        <time>2018-03-19T00:59:04Z</time>
      </trkpt>
      <trkpt lat="46.75038" lon="-1.90405">
        <ele>3</ele>
        <time>2018-03-19T01:00:04Z</time>
      </trkpt>
      <trkpt lat="46.75096" lon="-1.90395">
        <ele>3</ele>
        <time>2018-03-19T01:01:04Z</time>
      </trkpt>
      <trkpt lat="46.75153" lon="-1.90377">
        <ele>2</ele>
        <time>2018-03-19T01:02:04Z</time>
      </trkpt>
      <trkpt lat="46.75208" lon="-1.90355">
        <ele>3</ele>
        <time>2018-03-19T01:03:04Z</time>
      </trkpt>
      <trkpt lat="46.75278" lon="-1.90335">
        <ele>3</ele>
        <time>2018-03-19T01:04:04Z</time>
      </trkpt>
      <trkpt lat="46.75359" lon="-1.90297">
        <ele>2</ele>
        <time>2018-03-19T01:05:04Z</time>
      </trkpt>
      <trkpt lat="46.75388" lon="-1.90272">
        <ele>2</ele>
        <time>2018-03-19T01:06:04Z</time>
      </trkpt>
      <trkpt lat="46.75496" lon="-1.90136">
        <ele>3</ele>
        <time>2018-03-19T01:07:04Z</time>
      </trkpt>
      <trkpt lat="46.75654" lon="-1.89913">
        <ele>2</ele>
        <time>2018-03-19T01:08:04Z</time>
      </trkpt>
      <trkpt lat="46.75748" lon="-1.89777">
        <ele>4</ele>
        <time>2018-03-19T01:09:04Z</time>
      </trkpt>
      <trkpt lat="46.75792" lon="-1.89707">
        <ele>4</ele>
        <time>2018-03-19T01:10:04Z</time>
      </trkpt>
      <trkpt lat="46.75829" lon="-1.89638">
        <ele>4</ele>
        <time>2018-03-19T01:11:04Z</time>
      </trkpt>
      <trkpt lat="46.75929" lon="-1.89481">
        <ele>3</ele>
        <time>2018-03-19T01:12:04Z</time>
      </trkpt>
      <trkpt lat="46.76032" lon="-1.8935">
        <ele>4</ele>
        <time>2018-03-19T01:13:04Z</time>
      </trkpt>
      <trkpt lat="46.76099" lon="-1.89251">
        <ele>4</ele>
        <time>2018-03-19T01:14:04Z</time>
      </trkpt>
      <trkpt lat="46.76129" lon="-1.89199">
        <ele>4</ele>
        <time>2018-03-19T01:15:04Z</time>
      </trkpt>
      <trkpt lat="46.76179" lon="-1.89121">
        <ele>3</ele>
        <time>2018-03-19T01:16:04Z</time>
      </trkpt>
      <trkpt lat="46.76215" lon="-1.89071">
        <ele>3</ele>
        <time>2018-03-19T01:17:04Z</time>
      </trkpt>
      <trkpt lat="46.76274" lon="-1.89006">
        <ele>4</ele>
        <time>2018-03-19T01:18:04Z</time>
      </trkpt>
      <trkpt lat="46.76415" lon="-1.88803">
        <ele>5</ele>
        <time>2018-03-19T01:19:04Z</time>
      </trkpt>
      <trkpt lat="46.76521" lon="-1.88656">
        <ele>4</ele>
        <time>2018-03-19T01:20:04Z</time>
      </trkpt>
      <trkpt lat="46.76517" lon="-1.88646">
        <ele>4</ele>
        <time>2018-03-19T01:21:04Z</time>
      </trkpt>
      <trkpt lat="46.76519" lon="-1.88638">
        <ele>4</ele>
        <time>2018-03-19T01:22:04Z</time>
      </trkpt>
      <trkpt lat="46.76525" lon="-1.88635">
        <ele>4</ele>
        <time>2018-03-19T01:23:04Z</time>
      </trkpt>
      <trkpt lat="46.7653" lon="-1.88638">
        <ele>4</ele>
        <time>2018-03-19T01:24:04Z</time>
      </trkpt>
      <trkpt lat="46.76531" lon="-1.88642">
        <ele>4</ele>
        <time>2018-03-19T01:25:04Z</time>
      </trkpt>
      <trkpt lat="46.76602" lon="-1.88585">
        <ele>6</ele>
        <time>2018-03-19T01:26:04Z</time>
      </trkpt>
      <trkpt lat="46.76766" lon="-1.88503">
        <ele>5</ele>
        <time>2018-03-19T01:27:04Z</time>
      </trkpt>
      <trkpt lat="46.76861" lon="-1.88508">
        <ele>4</ele>
        <time>2018-03-19T01:28:04Z</time>
      </trkpt>
      <trkpt lat="46.76886" lon="-1.88504">
        <ele>5</ele>
        <time>2018-03-19T01:29:04Z</time>
      </trkpt>
      <trkpt lat="46.76886" lon="-1.88504">
        <ele>5</ele>
        <time>2018-03-19T01:30:04Z</time>
      </trkpt>
      <trkpt lat="46.77002" lon="-1.88482">
        <ele>4</ele>
        <time>2018-03-19T01:31:04Z</time>
      </trkpt>
      <trkpt lat="46.77072" lon="-1.88456">
        <ele>5</ele>
        <time>2018-03-19T01:32:04Z</time>
      </trkpt>
      <trkpt lat="46.77161" lon="-1.8841">
        <ele>4</ele>
        <time>2018-03-19T01:33:04Z</time>
      </trkpt>
      <trkpt lat="46.77209" lon="-1.88382">
        <ele>4</ele>
        <time>2018-03-19T01:34:04Z</time>
      </trkpt>
      <trkpt lat="46.77303" lon="-1.88324">
        <ele>3</ele>
        <time>2018-03-19T01:35:04Z</time>
      </trkpt>
      <trkpt lat="46.77334" lon="-1.88296">
        <ele>3</ele>
        <time>2018-03-19T01:36:04Z</time>
      </trkpt>
      <trkpt lat="46.77388" lon="-1.88223">
        <ele>3</ele>
        <time>2018-03-19T01:37:04Z</time>
      </trkpt>
      <trkpt lat="46.77463" lon="-1.88113">
        <ele>4</ele>
        <time>2018-03-19T01:38:04Z</time>
      </trkpt>
      <trkpt lat="46.77493" lon="-1.88076">
        <ele>4</ele>
        <time>2018-03-19T01:39:04Z</time>
      </trkpt>
      <trkpt lat="46.77699" lon="-1.87865">
        <ele>3</ele>
        <time>2018-03-19T01:40:04Z</time>
      </trkpt>
      <trkpt lat="46.77734" lon="-1.8779">
        <ele>3</ele>
        <time>2018-03-19T01:41:04Z</time>
      </trkpt>
      <trkpt lat="46.77763" lon="-1.87684">
        <ele>4</ele>
        <time>2018-03-19T01:42:04Z</time>
      </trkpt>
      <trkpt lat="46.77754" lon="-1.87636">
        <ele>4</ele>
        <time>2018-03-19T01:43:04Z</time>
      </trkpt>
      <trkpt lat="46.77741" lon="-1.8755">
        <ele>5</ele>
        <time>2018-03-19T01:44:04Z</time>
      </trkpt>
      <trkpt lat="46.77698" lon="-1.87211">
        <ele>5</ele>
        <time>2018-03-19T01:45:04Z</time>
      </trkpt>
      <trkpt lat="46.77693" lon="-1.87154">
        <ele>5</ele>
        <time>2018-03-19T01:46:04Z</time>
      </trkpt>
      <trkpt lat="46.77636" lon="-1.86773">
        <ele>7</ele>
        <time>2018-03-19T01:47:04Z</time>
      </trkpt>
      <trkpt lat="46.77624" lon="-1.86702">
        <ele>7</ele>
        <time>2018-03-19T01:48:04Z</time>
      </trkpt>
      <trkpt lat="46.77602" lon="-1.86637">
        <ele>7</ele>
        <time>2018-03-19T01:49:04Z</time>
      </trkpt>
      <trkpt lat="46.77569" lon="-1.86583">
        <ele>7</ele>
        <time>2018-03-19T01:50:04Z</time>
      </trkpt>
      <trkpt lat="46.77489" lon="-1.865">
        <ele>7</ele>
        <time>2018-03-19T01:51:04Z</time>
      </trkpt>
      <trkpt lat="46.77318" lon="-1.86309">
        <ele>8</ele>
        <time>2018-03-19T01:52:04Z</time>
      </trkpt>
      <trkpt lat="46.77276" lon="-1.86255">
        <ele>9</ele>
        <time>2018-03-19T01:53:04Z</time>
      </trkpt>
      <trkpt lat="46.77251" lon="-1.8621">
        <ele>9</ele>
        <time>2018-03-19T01:54:04Z</time>
      </trkpt>
      <trkpt lat="46.77178" lon="-1.86071">
        <ele>9</ele>
        <time>2018-03-19T01:55:04Z</time>
      </trkpt>
      <trkpt lat="46.77178" lon="-1.86071">
        <ele>9</ele>
        <time>2018-03-19T01:56:04Z</time>
      </trkpt>
      <trkpt lat="46.77008" lon="-1.85746">
        <ele>13</ele>
        <time>2018-03-19T01:57:04Z</time>
      </trkpt>
      <trkpt lat="46.76929" lon="-1.85591">
        <ele>13</ele>
        <time>2018-03-19T01:58:04Z</time>
      </trkpt>
      <trkpt lat="46.76832" lon="-1.85305">
        <ele>13</ele>
        <time>2018-03-19T01:59:04Z</time>
      </trkpt>
      <trkpt lat="46.76824" lon="-1.85272">
        <ele>13</ele>
        <time>2018-03-19T02:00:04Z</time>
      </trkpt>
      <trkpt lat="46.76816" lon="-1.85214">
        <ele>13</ele>
        <time>2018-03-19T02:01:04Z</time>
      </trkpt>
      <trkpt lat="46.76815" lon="-1.85185">
        <ele>13</ele>
        <time>2018-03-19T02:02:04Z</time>
      </trkpt>
      <trkpt lat="46.76817" lon="-1.85042">
        <ele>15</ele>
        <time>2018-03-19T02:03:04Z</time>
      </trkpt>
      <trkpt lat="46.76814" lon="-1.84995">
        <ele>15</ele>
        <time>2018-03-19T02:04:04Z</time>
      </trkpt>
      <trkpt lat="46.76808" lon="-1.84947">
        <ele>15</ele>
        <time>2018-03-19T02:05:04Z</time>
      </trkpt>
      <trkpt lat="46.76719" lon="-1.84443">
        <ele>18</ele>
        <time>2018-03-19T02:06:04Z</time>
      </trkpt>
      <trkpt lat="46.76715" lon="-1.84384">
        <ele>19</ele>
        <time>2018-03-19T02:07:04Z</time>
      </trkpt>
      <trkpt lat="46.76712" lon="-1.84282">
        <ele>19</ele>
        <time>2018-03-19T02:08:04Z</time>
      </trkpt>
      <trkpt lat="46.76707" lon="-1.84239">
        <ele>20</ele>
        <time>2018-03-19T02:09:04Z</time>
      </trkpt>
      <trkpt lat="46.76701" lon="-1.84214">
        <ele>20</ele>
        <time>2018-03-19T02:10:04Z</time>
      </trkpt>
      <trkpt lat="46.76689" lon="-1.84177">
        <ele>20</ele>
        <time>2018-03-19T02:11:04Z</time>
      </trkpt>
      <trkpt lat="46.76592" lon="-1.83933">
        <ele>21</ele>
        <time>2018-03-19T02:12:04Z</time>
      </trkpt>
      <trkpt lat="46.76583" lon="-1.83915">
        <ele>21</ele>
        <time>2018-03-19T02:13:04Z</time>
      </trkpt>
      <trkpt lat="46.76562" lon="-1.83892">
        <ele>20</ele>
        <time>2018-03-19T02:14:04Z</time>
      </trkpt>
      <trkpt lat="46.76569" lon="-1.83877">
        <ele>20</ele>
        <time>2018-03-19T02:15:04Z</time>
      </trkpt>
      <trkpt lat="46.76576" lon="-1.83871">
        <ele>20</ele>
        <time>2018-03-19T02:16:04Z</time>
      </trkpt>
      <trkpt lat="46.76602" lon="-1.83859">
        <ele>20</ele>
        <time>2018-03-19T02:17:04Z</time>
      </trkpt>
      <trkpt lat="46.76627" lon="-1.83854">
        <ele>20</ele>
        <time>2018-03-19T02:18:04Z</time>
      </trkpt>
      <trkpt lat="46.76633" lon="-1.8385">
        <ele>20</ele>
        <time>2018-03-19T02:19:04Z</time>
      </trkpt>
      <trkpt lat="46.76643" lon="-1.83833">
        <ele>20</ele>
        <time>2018-03-19T02:20:04Z</time>
      </trkpt>
      <trkpt lat="46.76648" lon="-1.83808">
        <ele>20</ele>
        <time>2018-03-19T02:21:04Z</time>
      </trkpt>
      <trkpt lat="46.76645" lon="-1.83705">
        <ele>20</ele>
        <time>2018-03-19T02:22:04Z</time>
      </trkpt>
      <trkpt lat="46.76646" lon="-1.83692">
        <ele>20</ele>
        <time>2018-03-19T02:23:04Z</time>
      </trkpt>
      <trkpt lat="46.76657" lon="-1.83653">
        <ele>20</ele>
        <time>2018-03-19T02:24:04Z</time>
      </trkpt>
      <trkpt lat="46.76658" lon="-1.83646">
        <ele>20</ele>
        <time>2018-03-19T02:25:04Z</time>
      </trkpt>
      <trkpt lat="46.76657" lon="-1.8364">
        <ele>20</ele>
        <time>2018-03-19T02:26:04Z</time>
      </trkpt>
      <trkpt lat="46.76646" lon="-1.8361">
        <ele>20</ele>
        <time>2018-03-19T02:27:04Z</time>
      </trkpt>
      <trkpt lat="46.76642" lon="-1.83597">
        <ele>20</ele>
        <time>2018-03-19T02:28:04Z</time>
      </trkpt>
      <trkpt lat="46.76646" lon="-1.8358">
        <ele>19</ele>
        <time>2018-03-19T02:29:04Z</time>
      </trkpt>
      <trkpt lat="46.76665" lon="-1.83533">
        <ele>20</ele>
        <time>2018-03-19T02:30:04Z</time>
      </trkpt>
      <trkpt lat="46.76677" lon="-1.83494">
        <ele>20</ele>
        <time>2018-03-19T02:31:04Z</time>
      </trkpt>
      <trkpt lat="46.76689" lon="-1.83432">
        <ele>19</ele>
        <time>2018-03-19T02:32:04Z</time>
      </trkpt>
      <trkpt lat="46.7669" lon="-1.83416">
        <ele>19</ele>
        <time>2018-03-19T02:33:04Z</time>
      </trkpt>
      <trkpt lat="46.76684" lon="-1.83399">
        <ele>19</ele>
        <time>2018-03-19T02:34:04Z</time>
      </trkpt>
      <trkpt lat="46.76707" lon="-1.83368">
        <ele>19</ele>
        <time>2018-03-19T02:35:04Z</time>
      </trkpt>
      <trkpt lat="46.76751" lon="-1.83294">
        <ele>19</ele>
        <time>2018-03-19T02:36:04Z</time>
      </trkpt>
      <trkpt lat="46.76781" lon="-1.83226">
        <ele>19</ele>
        <time>2018-03-19T02:37:04Z</time>
      </trkpt>
      <trkpt lat="46.76814" lon="-1.83126">
        <ele>18</ele>
        <time>2018-03-19T02:38:04Z</time>
      </trkpt>
      <trkpt lat="46.76833" lon="-1.83073">
        <ele>17</ele>
        <time>2018-03-19T02:39:04Z</time>
      </trkpt>
      <trkpt lat="46.76877" lon="-1.82986">
        <ele>20</ele>
        <time>2018-03-19T02:40:04Z</time>
      </trkpt>
      <trkpt lat="46.76824" lon="-1.82943">
        <ele>18</ele>
        <time>2018-03-19T02:41:04Z</time>
      </trkpt>
      <trkpt lat="46.76804" lon="-1.82923">
        <ele>18</ele>
        <time>2018-03-19T02:42:04Z</time>
      </trkpt>
      <trkpt lat="46.76784" lon="-1.829">
        <ele>18</ele>
        <time>2018-03-19T02:43:04Z</time>
      </trkpt>
      <trkpt lat="46.76758" lon="-1.8286">
        <ele>19</ele>
        <time>2018-03-19T02:44:04Z</time>
      </trkpt>
      <trkpt lat="46.76733" lon="-1.82802">
        <ele>18</ele>
        <time>2018-03-19T02:45:04Z</time>
      </trkpt>
      <trkpt lat="46.76733" lon="-1.82802">
        <ele>18</ele>
        <time>2018-03-19T02:46:04Z</time>
      </trkpt>
      <trkpt lat="46.76702" lon="-1.8273">
        <ele>17</ele>
        <time>2018-03-19T02:47:04Z</time>
      </trkpt>
      <trkpt lat="46.76687" lon="-1.82686">
        <ele>17</ele>
        <time>2018-03-19T02:48:04Z</time>
      </trkpt>
      <trkpt lat="46.76669" lon="-1.82586">
        <ele>17</ele>
        <time>2018-03-19T02:49:04Z</time>
      </trkpt>
      <trkpt lat="46.76659" lon="-1.82536">
        <ele>17</ele>
        <time>2018-03-19T02:50:04Z</time>
      </trkpt>
      <trkpt lat="46.76647" lon="-1.82502">
        <ele>17</ele>
        <time>2018-03-19T02:51:04Z</time>
      </trkpt>
      <trkpt lat="46.7662" lon="-1.8245">
        <ele>17</ele>
        <time>2018-03-19T02:52:04Z</time>
      </trkpt>
      <trkpt lat="46.76565" lon="-1.82358">
        <ele>17</ele>
        <time>2018-03-19T02:53:04Z</time>
      </trkpt>
      <trkpt lat="46.76559" lon="-1.82342">
        <ele>17</ele>
        <time>2018-03-19T02:54:04Z</time>
      </trkpt>
      <trkpt lat="46.76551" lon="-1.82284">
        <ele>17</ele>
        <time>2018-03-19T02:55:04Z</time>
      </trkpt>
      <trkpt lat="46.76547" lon="-1.82181">
        <ele>18</ele>
        <time>2018-03-19T02:56:04Z</time>
      </trkpt>
      <trkpt lat="46.76542" lon="-1.82124">
        <ele>18</ele>
        <time>2018-03-19T02:57:04Z</time>
      </trkpt>
      <trkpt lat="46.76541" lon="-1.82077">
        <ele>18</ele>
        <time>2018-03-19T02:58:04Z</time>
      </trkpt>
      <trkpt lat="46.76546" lon="-1.82027">
        <ele>17</ele>
        <time>2018-03-19T02:59:04Z</time>
      </trkpt>
      <trkpt lat="46.76553" lon="-1.81998">
        <ele>17</ele>
        <time>2018-03-19T03:00:04Z</time>
      </trkpt>
      <trkpt lat="46.76562" lon="-1.81975">
        <ele>18</ele>
        <time>2018-03-19T03:01:04Z</time>
      </trkpt>
      <trkpt lat="46.76719" lon="-1.81782">
        <ele>28</ele>
        <time>2018-03-19T03:02:04Z</time>
      </trkpt>
      <trkpt lat="46.76806" lon="-1.81669">
        <ele>33</ele>
        <time>2018-03-19T03:03:04Z</time>
      </trkpt>
      <trkpt lat="46.76844" lon="-1.81613">
        <ele>35</ele>
        <time>2018-03-19T03:04:04Z</time>
      </trkpt>
      <trkpt lat="46.76868" lon="-1.81554">
        <ele>37</ele>
        <time>2018-03-19T03:05:04Z</time>
      </trkpt>
      <trkpt lat="46.76882" lon="-1.8149">
        <ele>38</ele>
        <time>2018-03-19T03:06:04Z</time>
      </trkpt>
      <trkpt lat="46.76885" lon="-1.81459">
        <ele>38</ele>
        <time>2018-03-19T03:07:04Z</time>
      </trkpt>
      <trkpt lat="46.76925" lon="-1.81203">
        <ele>43</ele>
        <time>2018-03-19T03:08:04Z</time>
      </trkpt>
      <trkpt lat="46.76942" lon="-1.81035">
        <ele>42</ele>
        <time>2018-03-19T03:09:04Z</time>
      </trkpt>
      <trkpt lat="46.7695" lon="-1.80898">
        <ele>41</ele>
        <time>2018-03-19T03:10:04Z</time>
      </trkpt>
      <trkpt lat="46.76952" lon="-1.80805">
        <ele>42</ele>
        <time>2018-03-19T03:11:04Z</time>
      </trkpt>
      <trkpt lat="46.7695" lon="-1.80755">
        <ele>42</ele>
        <time>2018-03-19T03:12:04Z</time>
      </trkpt>
      <trkpt lat="46.76937" lon="-1.80664">
        <ele>41</ele>
        <time>2018-03-19T03:13:04Z</time>
      </trkpt>
      <trkpt lat="46.76912" lon="-1.80546">
        <ele>41</ele>
        <time>2018-03-19T03:14:04Z</time>
      </trkpt>
      <trkpt lat="46.76905" lon="-1.80527">
        <ele>42</ele>
        <time>2018-03-19T03:15:04Z</time>
      </trkpt>
      <trkpt lat="46.76785" lon="-1.80325">
        <ele>44</ele>
        <time>2018-03-19T03:16:04Z</time>
      </trkpt>
      <trkpt lat="46.76768" lon="-1.8029">
        <ele>45</ele>
        <time>2018-03-19T03:17:04Z</time>
      </trkpt>
      <trkpt lat="46.76762" lon="-1.80262">
        <ele>45</ele>
        <time>2018-03-19T03:18:04Z</time>
      </trkpt>
      <trkpt lat="46.7676" lon="-1.80235">
        <ele>46</ele>
        <time>2018-03-19T03:19:04Z</time>
      </trkpt>
      <trkpt lat="46.76762" lon="-1.80045">
        <ele>45</ele>
        <time>2018-03-19T03:20:04Z</time>
      </trkpt>
      <trkpt lat="46.76764" lon="-1.79969">
        <ele>45</ele>
        <time>2018-03-19T03:21:04Z</time>
      </trkpt>
      <trkpt lat="46.7677" lon="-1.79886">
        <ele>45</ele>
        <time>2018-03-19T03:22:04Z</time>
      </trkpt>
      <trkpt lat="46.76781" lon="-1.79784">
        <ele>46</ele>
        <time>2018-03-19T03:23:04Z</time>
      </trkpt>
      <trkpt lat="46.76793" lon="-1.79655">
        <ele>47</ele>
        <time>2018-03-19T03:24:04Z</time>
      </trkpt>
      <trkpt lat="46.76802" lon="-1.79588">
        <ele>48</ele>
        <time>2018-03-19T03:25:04Z</time>
      </trkpt>
      <trkpt lat="46.7681" lon="-1.79555">
        <ele>48</ele>
        <time>2018-03-19T03:26:04Z</time>
      </trkpt>
      <trkpt lat="46.76952" lon="-1.79219">
        <ele>53</ele>
        <time>2018-03-19T03:27:04Z</time>
      </trkpt>
      <trkpt lat="46.76971" lon="-1.79164">
        <ele>52</ele>
        <time>2018-03-19T03:28:04Z</time>
      </trkpt>
      <trkpt lat="46.76971" lon="-1.79164">
        <ele>52</ele>
        <time>2018-03-19T03:29:04Z</time>
      </trkpt>
      <trkpt lat="46.7699" lon="-1.79078">
        <ele>52</ele>
        <time>2018-03-19T03:30:04Z</time>
      </trkpt>
      <trkpt lat="46.77059" lon="-1.78718">
        <ele>52</ele>
        <time>2018-03-19T03:31:04Z</time>
      </trkpt>
      <trkpt lat="46.77105" lon="-1.78497">
        <ele>53</ele>
        <time>2018-03-19T03:32:04Z</time>
      </trkpt>
      <trkpt lat="46.77138" lon="-1.78173">
        <ele>52</ele>
        <time>2018-03-19T03:33:04Z</time>
      </trkpt>
      <trkpt lat="46.77154" lon="-1.78078">
        <ele>53</ele>
        <time>2018-03-19T03:34:04Z</time>
      </trkpt>
      <trkpt lat="46.77181" lon="-1.77946">
        <ele>52</ele>
        <time>2018-03-19T03:35:04Z</time>
      </trkpt>
      <trkpt lat="46.77206" lon="-1.77783">
        <ele>51</ele>
        <time>2018-03-19T03:36:04Z</time>
      </trkpt>
      <trkpt lat="46.77224" lon="-1.77606">
        <ele>52</ele>
        <time>2018-03-19T03:37:04Z</time>
      </trkpt>
      <trkpt lat="46.77234" lon="-1.77534">
        <ele>52</ele>
        <time>2018-03-19T03:38:04Z</time>
      </trkpt>
      <trkpt lat="46.77244" lon="-1.77496">
        <ele>51</ele>
        <time>2018-03-19T03:39:04Z</time>
      </trkpt>
      <trkpt lat="46.77263" lon="-1.77457">
        <ele>51</ele>
        <time>2018-03-19T03:40:04Z</time>
      </trkpt>
      <trkpt lat="46.77641" lon="-1.76757">
        <ele>53</ele>
        <time>2018-03-19T03:41:04Z</time>
      </trkpt>
      <trkpt lat="46.7766" lon="-1.76719">
        <ele>53</ele>
        <time>2018-03-19T03:42:04Z</time>
      </trkpt>
      <trkpt lat="46.77423" lon="-1.76658">
        <ele>55</ele>
        <time>2018-03-19T03:43:04Z</time>
      </trkpt>
      <trkpt lat="46.77402" lon="-1.76651">
        <ele>55</ele>
        <time>2018-03-19T03:44:04Z</time>
      </trkpt>
      <trkpt lat="46.77402" lon="-1.76651">
        <ele>55</ele>
        <time>2018-03-19T03:45:04Z</time>
      </trkpt>
      <trkpt lat="46.77336" lon="-1.76626">
        <ele>54</ele>
        <time>2018-03-19T03:46:04Z</time>
      </trkpt>
      <trkpt lat="46.77232" lon="-1.76579">
        <ele>55</ele>
        <time>2018-03-19T03:47:04Z</time>
      </trkpt>
      <trkpt lat="46.77054" lon="-1.76498">
        <ele>56</ele>
        <time>2018-03-19T03:48:04Z</time>
      </trkpt>
      <trkpt lat="46.76815" lon="-1.76384">
        <ele>56</ele>
        <time>2018-03-19T03:49:04Z</time>
      </trkpt>
      <trkpt lat="46.76755" lon="-1.76336">
        <ele>57</ele>
        <time>2018-03-19T03:50:04Z</time>
      </trkpt>
      <trkpt lat="46.76734" lon="-1.7631">
        <ele>56</ele>
        <time>2018-03-19T03:51:04Z</time>
      </trkpt>
      <trkpt lat="46.76707" lon="-1.76264">
        <ele>55</ele>
        <time>2018-03-19T03:52:04Z</time>
      </trkpt>
      <trkpt lat="46.76464" lon="-1.75703">
        <ele>51</ele>
        <time>2018-03-19T03:53:04Z</time>
      </trkpt>
      <trkpt lat="46.76447" lon="-1.7567">
        <ele>51</ele>
        <time>2018-03-19T03:54:04Z</time>
      </trkpt>
      <trkpt lat="46.76426" lon="-1.75645">
        <ele>50</ele>
        <time>2018-03-19T03:55:04Z</time>
      </trkpt>
      <trkpt lat="46.76298" lon="-1.7557">
        <ele>46</ele>
        <time>2018-03-19T03:56:04Z</time>
      </trkpt>
      <trkpt lat="46.76255" lon="-1.75559">
        <ele>44</ele>
        <time>2018-03-19T03:57:04Z</time>
      </trkpt>
      <trkpt lat="46.76229" lon="-1.75546">
        <ele>43</ele>
        <time>2018-03-19T03:58:04Z</time>
      </trkpt>
      <trkpt lat="46.76182" lon="-1.75469">
        <ele>38</ele>
        <time>2018-03-19T03:59:04Z</time>
      </trkpt>
      <trkpt lat="46.7616" lon="-1.75449">
        <ele>36</ele>
        <time>2018-03-19T04:00:04Z</time>
      </trkpt>
      <trkpt lat="46.76126" lon="-1.75432">
        <ele>35</ele>
        <time>2018-03-19T04:01:04Z</time>
      </trkpt>
      <trkpt lat="46.76041" lon="-1.75404">
        <ele>32</ele>
        <time>2018-03-19T04:02:04Z</time>
      </trkpt>
      <trkpt lat="46.76013" lon="-1.75406">
        <ele>30</ele>
        <time>2018-03-19T04:03:04Z</time>
      </trkpt>
      <trkpt lat="46.75989" lon="-1.75421">
        <ele>29</ele>
        <time>2018-03-19T04:04:04Z</time>
      </trkpt>
      <trkpt lat="46.75977" lon="-1.75448">
        <ele>28</ele>
        <time>2018-03-19T04:05:04Z</time>
      </trkpt>
      <trkpt lat="46.75971" lon="-1.75518">
        <ele>28</ele>
        <time>2018-03-19T04:06:04Z</time>
      </trkpt>
      <trkpt lat="46.75959" lon="-1.75543">
        <ele>28</ele>
        <time>2018-03-19T04:07:04Z</time>
      </trkpt>
      <trkpt lat="46.7593" lon="-1.7556">
        <ele>25</ele>
        <time>2018-03-19T04:08:04Z</time>
      </trkpt>
      <trkpt lat="46.7591" lon="-1.75558">
        <ele>23</ele>
        <time>2018-03-19T04:09:04Z</time>
      </trkpt>
      <trkpt lat="46.75889" lon="-1.75541">
        <ele>22</ele>
        <time>2018-03-19T04:10:04Z</time>
      </trkpt>
      <trkpt lat="46.75881" lon="-1.75501">
        <ele>21</ele>
        <time>2018-03-19T04:11:04Z</time>
      </trkpt>
      <trkpt lat="46.75872" lon="-1.75361">
        <ele>24</ele>
        <time>2018-03-19T04:12:04Z</time>
      </trkpt>
      <trkpt lat="46.75864" lon="-1.75338">
        <ele>24</ele>
        <time>2018-03-19T04:13:04Z</time>
      </trkpt>
      <trkpt lat="46.75846" lon="-1.75325">
        <ele>26</ele>
        <time>2018-03-19T04:14:04Z</time>
      </trkpt>
      <trkpt lat="46.75742" lon="-1.75297">
        <ele>34</ele>
        <time>2018-03-19T04:15:04Z</time>
      </trkpt>
      <trkpt lat="46.75706" lon="-1.75278">
        <ele>38</ele>
        <time>2018-03-19T04:16:04Z</time>
      </trkpt>
      <trkpt lat="46.75656" lon="-1.75224">
        <ele>42</ele>
        <time>2018-03-19T04:17:04Z</time>
      </trkpt>
      <trkpt lat="46.75589" lon="-1.75099">
        <ele>47</ele>
        <time>2018-03-19T04:18:04Z</time>
      </trkpt>
      <trkpt lat="46.75495" lon="-1.74894">
        <ele>48</ele>
        <time>2018-03-19T04:19:04Z</time>
      </trkpt>
      <trkpt lat="46.75447" lon="-1.7478">
        <ele>48</ele>
        <time>2018-03-19T04:20:04Z</time>
      </trkpt>
      <trkpt lat="46.75425" lon="-1.74712">
        <ele>48</ele>
        <time>2018-03-19T04:21:04Z</time>
      </trkpt>
      <trkpt lat="46.75413" lon="-1.74647">
        <ele>47</ele>
        <time>2018-03-19T04:22:04Z</time>
      </trkpt>
      <trkpt lat="46.75397" lon="-1.74478">
        <ele>48</ele>
        <time>2018-03-19T04:23:04Z</time>
      </trkpt>
      <trkpt lat="46.75392" lon="-1.74399">
        <ele>48</ele>
        <time>2018-03-19T04:24:04Z</time>
      </trkpt>
      <trkpt lat="46.75401" lon="-1.74208">
        <ele>47</ele>
        <time>2018-03-19T04:25:04Z</time>
      </trkpt>
      <trkpt lat="46.75401" lon="-1.74208">
        <ele>47</ele>
        <time>2018-03-19T04:26:04Z</time>
      </trkpt>
      <trkpt lat="46.75402" lon="-1.74194">
        <ele>47</ele>
        <time>2018-03-19T04:27:04Z</time>
      </trkpt>
      <trkpt lat="46.7541" lon="-1.74131">
        <ele>47</ele>
        <time>2018-03-19T04:28:04Z</time>
      </trkpt>
      <trkpt lat="46.75425" lon="-1.7408">
        <ele>47</ele>
        <time>2018-03-19T04:29:04Z</time>
      </trkpt>
      <trkpt lat="46.75448" lon="-1.73988">
        <ele>50</ele>
        <time>2018-03-19T04:30:04Z</time>
      </trkpt>
      <trkpt lat="46.7545" lon="-1.73961">
        <ele>51</ele>
        <time>2018-03-19T04:31:04Z</time>
      </trkpt>
      <trkpt lat="46.75443" lon="-1.73917">
        <ele>51</ele>
        <time>2018-03-19T04:32:04Z</time>
      </trkpt>
      <trkpt lat="46.75412" lon="-1.73865">
        <ele>52</ele>
        <time>2018-03-19T04:33:04Z</time>
      </trkpt>
      <trkpt lat="46.75374" lon="-1.73869">
        <ele>51</ele>
        <time>2018-03-19T04:34:04Z</time>
      </trkpt>
      <trkpt lat="46.75265" lon="-1.73908">
        <ele>48</ele>
        <time>2018-03-19T04:35:04Z</time>
      </trkpt>
      <trkpt lat="46.75254" lon="-1.73907">
        <ele>47</ele>
        <time>2018-03-19T04:36:04Z</time>
      </trkpt>
      <trkpt lat="46.75237" lon="-1.739">
        <ele>47</ele>
        <time>2018-03-19T04:37:04Z</time>
      </trkpt>
      <trkpt lat="46.752" lon="-1.73865">
        <ele>46</ele>
        <time>2018-03-19T04:38:04Z</time>
      </trkpt>
      <trkpt lat="46.75158" lon="-1.73842">
        <ele>45</ele>
        <time>2018-03-19T04:39:04Z</time>
      </trkpt>
      <trkpt lat="46.75138" lon="-1.73838">
        <ele>45</ele>
        <time>2018-03-19T04:40:04Z</time>
      </trkpt>
      <trkpt lat="46.75116" lon="-1.73839">
        <ele>43</ele>
        <time>2018-03-19T04:41:04Z</time>
      </trkpt>
      <trkpt lat="46.75078" lon="-1.73844">
        <ele>42</ele>
        <time>2018-03-19T04:42:04Z</time>
      </trkpt>
      <trkpt lat="46.75078" lon="-1.73844">
        <ele>42</ele>
        <time>2018-03-19T04:43:04Z</time>
      </trkpt>
      <trkpt lat="46.75034" lon="-1.7385">
        <ele>39</ele>
        <time>2018-03-19T04:44:04Z</time>
      </trkpt>
      <trkpt lat="46.74906" lon="-1.73839">
        <ele>33</ele>
        <time>2018-03-19T04:45:04Z</time>
      </trkpt>
      <trkpt lat="46.74885" lon="-1.73846">
        <ele>32</ele>
        <time>2018-03-19T04:46:04Z</time>
      </trkpt>
      <trkpt lat="46.74861" lon="-1.73867">
        <ele>30</ele>
        <time>2018-03-19T04:47:04Z</time>
      </trkpt>
      <trkpt lat="46.74868" lon="-1.73886">
        <ele>30</ele>
        <time>2018-03-19T04:48:04Z</time>
      </trkpt>
      <trkpt lat="46.74899" lon="-1.73947">
        <ele>28</ele>
        <time>2018-03-19T04:49:04Z</time>
      </trkpt>
      <trkpt lat="46.74913" lon="-1.73957">
        <ele>28</ele>
        <time>2018-03-19T04:50:04Z</time>
      </trkpt>
      <trkpt lat="46.74926" lon="-1.73959">
        <ele>28</ele>
        <time>2018-03-19T04:51:04Z</time>
      </trkpt>
      <trkpt lat="46.74938" lon="-1.73964">
        <ele>28</ele>
        <time>2018-03-19T04:52:04Z</time>
      </trkpt>
      <trkpt lat="46.7497" lon="-1.74011">
        <ele>27</ele>
        <time>2018-03-19T04:53:04Z</time>
      </trkpt>
      <trkpt lat="46.7496" lon="-1.74025">
        <ele>27</ele>
        <time>2018-03-19T04:54:04Z</time>
      </trkpt>
      <trkpt lat="46.74945" lon="-1.74036">
        <ele>26</ele>
        <time>2018-03-19T04:55:04Z</time>
      </trkpt>
      <trkpt lat="46.74945" lon="-1.74036">
        <ele>26</ele>
        <time>2018-03-19T04:56:04Z</time>
      </trkpt>
      <trkpt lat="46.74929" lon="-1.74047">
        <ele>25</ele>
        <time>2018-03-19T04:57:04Z</time>
      </trkpt>
      <trkpt lat="46.74847" lon="-1.74083">
        <ele>18</ele>
        <time>2018-03-19T04:58:04Z</time>
      </trkpt>
      <trkpt lat="46.74803" lon="-1.74097">
        <ele>15</ele>
        <time>2018-03-19T04:59:04Z</time>
      </trkpt>
      <trkpt lat="46.74757" lon="-1.74137">
        <ele>11</ele>
        <time>2018-03-19T05:00:04Z</time>
      </trkpt>
      <trkpt lat="46.74737" lon="-1.74157">
        <ele>12</ele>
        <time>2018-03-19T05:01:04Z</time>
      </trkpt>
      <trkpt lat="46.74727" lon="-1.74171">
        <ele>13</ele>
        <time>2018-03-19T05:02:04Z</time>
      </trkpt>
      <trkpt lat="46.74719" lon="-1.74178">
        <ele>14</ele>
        <time>2018-03-19T05:03:04Z</time>
      </trkpt>
      <trkpt lat="46.74711" lon="-1.74182">
        <ele>15</ele>
        <time>2018-03-19T05:04:04Z</time>
      </trkpt>
      <trkpt lat="46.74674" lon="-1.74193">
        <ele>18</ele>
        <time>2018-03-19T05:05:04Z</time>
      </trkpt>
      <trkpt lat="46.74617" lon="-1.74181">
        <ele>22</ele>
        <time>2018-03-19T05:06:04Z</time>
      </trkpt>
      <trkpt lat="46.74593" lon="-1.7417">
        <ele>24</ele>
        <time>2018-03-19T05:07:04Z</time>
      </trkpt>
      <trkpt lat="46.74564" lon="-1.74162">
        <ele>26</ele>
        <time>2018-03-19T05:08:04Z</time>
      </trkpt>
      <trkpt lat="46.74433" lon="-1.74073">
        <ele>32</ele>
        <time>2018-03-19T05:09:04Z</time>
      </trkpt>
      <trkpt lat="46.74352" lon="-1.74009">
        <ele>33</ele>
        <time>2018-03-19T05:10:04Z</time>
      </trkpt>
      <trkpt lat="46.74279" lon="-1.73965">
        <ele>35</ele>
        <time>2018-03-19T05:11:04Z</time>
      </trkpt>
      <trkpt lat="46.74242" lon="-1.73929">
        <ele>36</ele>
        <time>2018-03-19T05:12:04Z</time>
      </trkpt>
      <trkpt lat="46.74209" lon="-1.7389">
        <ele>36</ele>
        <time>2018-03-19T05:13:04Z</time>
      </trkpt>
      <trkpt lat="46.74181" lon="-1.73829">
        <ele>37</ele>
        <time>2018-03-19T05:14:04Z</time>
      </trkpt>
      <trkpt lat="46.74131" lon="-1.7363">
        <ele>39</ele>
        <time>2018-03-19T05:15:04Z</time>
      </trkpt>
      <trkpt lat="46.74116" lon="-1.73577">
        <ele>39</ele>
        <time>2018-03-19T05:16:04Z</time>
      </trkpt>
      <trkpt lat="46.74101" lon="-1.73518">
        <ele>39</ele>
        <time>2018-03-19T05:17:04Z</time>
      </trkpt>
      <trkpt lat="46.74088" lon="-1.73428">
        <ele>39</ele>
        <time>2018-03-19T05:18:04Z</time>
      </trkpt>
      <trkpt lat="46.74091" lon="-1.73293">
        <ele>39</ele>
        <time>2018-03-19T05:19:04Z</time>
      </trkpt>
      <trkpt lat="46.74115" lon="-1.72946">
        <ele>39</ele>
        <time>2018-03-19T05:20:04Z</time>
      </trkpt>
      <trkpt lat="46.74122" lon="-1.72854">
        <ele>39</ele>
        <time>2018-03-19T05:21:04Z</time>
      </trkpt>
      <trkpt lat="46.74122" lon="-1.72805">
        <ele>39</ele>
        <time>2018-03-19T05:22:04Z</time>
      </trkpt>
      <trkpt lat="46.74116" lon="-1.72757">
        <ele>41</ele>
        <time>2018-03-19T05:23:04Z</time>
      </trkpt>
      <trkpt lat="46.74079" lon="-1.72613">
        <ele>38</ele>
        <time>2018-03-19T05:24:04Z</time>
      </trkpt>
      <trkpt lat="46.74072" lon="-1.72541">
        <ele>38</ele>
        <time>2018-03-19T05:25:04Z</time>
      </trkpt>
      <trkpt lat="46.74075" lon="-1.72499">
        <ele>38</ele>
        <time>2018-03-19T05:26:04Z</time>
      </trkpt>
      <trkpt lat="46.74075" lon="-1.72499">
        <ele>38</ele>
        <time>2018-03-19T05:27:04Z</time>
      </trkpt>
      <trkpt lat="46.74087" lon="-1.72302">
        <ele>38</ele>
        <time>2018-03-19T05:28:04Z</time>
      </trkpt>
      <trkpt lat="46.74095" lon="-1.72201">
        <ele>40</ele>
        <time>2018-03-19T05:29:04Z</time>
      </trkpt>
      <trkpt lat="46.74111" lon="-1.72067">
        <ele>40</ele>
        <time>2018-03-19T05:30:04Z</time>
      </trkpt>
      <trkpt lat="46.74124" lon="-1.71945">
        <ele>41</ele>
        <time>2018-03-19T05:31:04Z</time>
      </trkpt>
      <trkpt lat="46.74122" lon="-1.71815">
        <ele>44</ele>
        <time>2018-03-19T05:32:04Z</time>
      </trkpt>
      <trkpt lat="46.74137" lon="-1.71679">
        <ele>43</ele>
        <time>2018-03-19T05:33:04Z</time>
      </trkpt>
      <trkpt lat="46.74185" lon="-1.71507">
        <ele>38</ele>
        <time>2018-03-19T05:34:04Z</time>
      </trkpt>
      <trkpt lat="46.74193" lon="-1.7139">
        <ele>37</ele>
        <time>2018-03-19T05:35:04Z</time>
      </trkpt>
      <trkpt lat="46.7419" lon="-1.713">
        <ele>36</ele>
        <time>2018-03-19T05:36:04Z</time>
      </trkpt>
      <trkpt lat="46.74176" lon="-1.71228">
        <ele>37</ele>
        <time>2018-03-19T05:37:04Z</time>
      </trkpt>
      <trkpt lat="46.74168" lon="-1.71075">
        <ele>42</ele>
        <time>2018-03-19T05:38:04Z</time>
      </trkpt>
      <trkpt lat="46.74158" lon="-1.70973">
        <ele>43</ele>
        <time>2018-03-19T05:39:04Z</time>
      </trkpt>
      <trkpt lat="46.74165" lon="-1.70913">
        <ele>42</ele>
        <time>2018-03-19T05:40:04Z</time>
      </trkpt>
      <trkpt lat="46.74191" lon="-1.70816">
        <ele>40</ele>
        <time>2018-03-19T05:41:04Z</time>
      </trkpt>
      <trkpt lat="46.74202" lon="-1.70742">
        <ele>38</ele>
        <time>2018-03-19T05:42:04Z</time>
      </trkpt>
      <trkpt lat="46.74202" lon="-1.70687">
        <ele>37</ele>
        <time>2018-03-19T05:43:04Z</time>
      </trkpt>
      <trkpt lat="46.74182" lon="-1.7058">
        <ele>33</ele>
        <time>2018-03-19T05:44:04Z</time>
      </trkpt>
      <trkpt lat="46.74186" lon="-1.70521">
        <ele>31</ele>
        <time>2018-03-19T05:45:04Z</time>
      </trkpt>
      <trkpt lat="46.74209" lon="-1.70415">
        <ele>29</ele>
        <time>2018-03-19T05:46:04Z</time>
      </trkpt>
      <trkpt lat="46.74202" lon="-1.70297">
        <ele>32</ele>
        <time>2018-03-19T05:47:04Z</time>
      </trkpt>
      <trkpt lat="46.74207" lon="-1.70209">
        <ele>32</ele>
        <time>2018-03-19T05:48:04Z</time>
      </trkpt>
      <trkpt lat="46.74221" lon="-1.70025">
        <ele>36</ele>
        <time>2018-03-19T05:49:04Z</time>
      </trkpt>
      <trkpt lat="46.74238" lon="-1.69873">
        <ele>36</ele>
        <time>2018-03-19T05:50:04Z</time>
      </trkpt>
      <trkpt lat="46.74249" lon="-1.69787">
        <ele>37</ele>
        <time>2018-03-19T05:51:04Z</time>
      </trkpt>
      <trkpt lat="46.74254" lon="-1.69701">
        <ele>37</ele>
        <time>2018-03-19T05:52:04Z</time>
      </trkpt>
      <trkpt lat="46.74262" lon="-1.6927">
        <ele>37</ele>
        <time>2018-03-19T05:53:04Z</time>
      </trkpt>
      <trkpt lat="46.74284" lon="-1.69224">
        <ele>35</ele>
        <time>2018-03-19T05:54:04Z</time>
      </trkpt>
      <trkpt lat="46.7439" lon="-1.69015">
        <ele>27</ele>
        <time>2018-03-19T05:55:04Z</time>
      </trkpt>
      <trkpt lat="46.74401" lon="-1.68975">
        <ele>26</ele>
        <time>2018-03-19T05:56:04Z</time>
      </trkpt>
      <trkpt lat="46.7443" lon="-1.6885">
        <ele>22</ele>
        <time>2018-03-19T05:57:04Z</time>
      </trkpt>
      <trkpt lat="46.74476" lon="-1.68781">
        <ele>22</ele>
        <time>2018-03-19T05:58:04Z</time>
      </trkpt>
      <trkpt lat="46.74524" lon="-1.68714">
        <ele>22</ele>
        <time>2018-03-19T05:59:04Z</time>
      </trkpt>
      <trkpt lat="46.74589" lon="-1.68691">
        <ele>22</ele>
        <time>2018-03-19T06:00:04Z</time>
      </trkpt>
      <trkpt lat="46.74615" lon="-1.68663">
        <ele>23</ele>
        <time>2018-03-19T06:01:04Z</time>
      </trkpt>
      <trkpt lat="46.74647" lon="-1.68601">
        <ele>25</ele>
        <time>2018-03-19T06:02:04Z</time>
      </trkpt>
      <trkpt lat="46.74645" lon="-1.68487">
        <ele>25</ele>
        <time>2018-03-19T06:03:04Z</time>
      </trkpt>
      <trkpt lat="46.74639" lon="-1.68429">
        <ele>24</ele>
        <time>2018-03-19T06:04:04Z</time>
      </trkpt>
      <trkpt lat="46.74641" lon="-1.68403">
        <ele>24</ele>
        <time>2018-03-19T06:05:04Z</time>
      </trkpt>
      <trkpt lat="46.74641" lon="-1.68403">
        <ele>24</ele>
        <time>2018-03-19T06:06:04Z</time>
      </trkpt>
      <trkpt lat="46.74643" lon="-1.68381">
        <ele>24</ele>
        <time>2018-03-19T06:07:04Z</time>
      </trkpt>
      <trkpt lat="46.74653" lon="-1.68336">
        <ele>23</ele>
        <time>2018-03-19T06:08:04Z</time>
      </trkpt>
      <trkpt lat="46.74678" lon="-1.68284">
        <ele>23</ele>
        <time>2018-03-19T06:09:04Z</time>
      </trkpt>
      <trkpt lat="46.74333" lon="-1.68173">
        <ele>32</ele>
        <time>2018-03-19T06:10:04Z</time>
      </trkpt>
      <trkpt lat="46.74325" lon="-1.68168">
        <ele>32</ele>
        <time>2018-03-19T06:11:04Z</time>
      </trkpt>
      <trkpt lat="46.74316" lon="-1.68175">
        <ele>32</ele>
        <time>2018-03-19T06:12:04Z</time>
      </trkpt>
      <trkpt lat="46.74295" lon="-1.68185">
        <ele>32</ele>
        <time>2018-03-19T06:13:04Z</time>
      </trkpt>
      <trkpt lat="46.74109" lon="-1.68221">
        <ele>34</ele>
        <time>2018-03-19T06:14:04Z</time>
      </trkpt>
      <trkpt lat="46.74074" lon="-1.68223">
        <ele>34</ele>
        <time>2018-03-19T06:15:04Z</time>
      </trkpt>
      <trkpt lat="46.74041" lon="-1.68217">
        <ele>35</ele>
        <time>2018-03-19T06:16:04Z</time>
      </trkpt>
      <trkpt lat="46.73919" lon="-1.68179">
        <ele>36</ele>
        <time>2018-03-19T06:17:04Z</time>
      </trkpt>
      <trkpt lat="46.73887" lon="-1.68173">
        <ele>36</ele>
        <time>2018-03-19T06:18:04Z</time>
      </trkpt>
      <trkpt lat="46.73858" lon="-1.68175">
        <ele>37</ele>
        <time>2018-03-19T06:19:04Z</time>
      </trkpt>
      <trkpt lat="46.73833" lon="-1.68183">
        <ele>37</ele>
        <time>2018-03-19T06:20:04Z</time>
      </trkpt>
      <trkpt lat="46.73598" lon="-1.68279">
        <ele>40</ele>
        <time>2018-03-19T06:21:04Z</time>
      </trkpt>
      <trkpt lat="46.73576" lon="-1.68286">
        <ele>40</ele>
        <time>2018-03-19T06:22:04Z</time>
      </trkpt>
      <trkpt lat="46.73543" lon="-1.6829">
        <ele>39</ele>
        <time>2018-03-19T06:23:04Z</time>
      </trkpt>
      <trkpt lat="46.73385" lon="-1.6829">
        <ele>41</ele>
        <time>2018-03-19T06:24:04Z</time>
      </trkpt>
      <trkpt lat="46.73385" lon="-1.6829">
        <ele>41</ele>
        <time>2018-03-19T06:25:04Z</time>
      </trkpt>
      <trkpt lat="46.73146" lon="-1.68286">
        <ele>46</ele>
        <time>2018-03-19T06:26:04Z</time>
      </trkpt>
      <trkpt lat="46.73124" lon="-1.68288">
        <ele>47</ele>
        <time>2018-03-19T06:27:04Z</time>
      </trkpt>
      <trkpt lat="46.72892" lon="-1.68335">
        <ele>48</ele>
        <time>2018-03-19T06:28:04Z</time>
      </trkpt>
      <trkpt lat="46.72869" lon="-1.68338">
        <ele>48</ele>
        <time>2018-03-19T06:29:04Z</time>
      </trkpt>
      <trkpt lat="46.72838" lon="-1.68338">
        <ele>48</ele>
        <time>2018-03-19T06:30:04Z</time>
      </trkpt>
      <trkpt lat="46.72823" lon="-1.68335">
        <ele>48</ele>
        <time>2018-03-19T06:31:04Z</time>
      </trkpt>
      <trkpt lat="46.72783" lon="-1.68323">
        <ele>48</ele>
        <time>2018-03-19T06:32:04Z</time>
      </trkpt>
      <trkpt lat="46.72587" lon="-1.68251">
        <ele>49</ele>
        <time>2018-03-19T06:33:04Z</time>
      </trkpt>
      <trkpt lat="46.72547" lon="-1.68239">
        <ele>49</ele>
        <time>2018-03-19T06:34:04Z</time>
      </trkpt>
      <trkpt lat="46.72516" lon="-1.68236">
        <ele>50</ele>
        <time>2018-03-19T06:35:04Z</time>
      </trkpt>
      <trkpt lat="46.72395" lon="-1.68234">
        <ele>51</ele>
        <time>2018-03-19T06:36:04Z</time>
      </trkpt>
      <trkpt lat="46.72383" lon="-1.68232">
        <ele>51</ele>
        <time>2018-03-19T06:37:04Z</time>
      </trkpt>
      <trkpt lat="46.72372" lon="-1.68227">
        <ele>51</ele>
        <time>2018-03-19T06:38:04Z</time>
      </trkpt>
      <trkpt lat="46.72353" lon="-1.68214">
        <ele>50</ele>
        <time>2018-03-19T06:39:04Z</time>
      </trkpt>
      <trkpt lat="46.72339" lon="-1.68199">
        <ele>50</ele>
        <time>2018-03-19T06:40:04Z</time>
      </trkpt>
      <trkpt lat="46.72321" lon="-1.68171">
        <ele>49</ele>
        <time>2018-03-19T06:41:04Z</time>
      </trkpt>
      <trkpt lat="46.71891" lon="-1.67415">
        <ele>52</ele>
        <time>2018-03-19T06:42:04Z</time>
      </trkpt>
      <trkpt lat="46.7176" lon="-1.673">
        <ele>51</ele>
        <time>2018-03-19T06:43:04Z</time>
      </trkpt>
      <trkpt lat="46.7176" lon="-1.673">
        <ele>51</ele>
        <time>2018-03-19T06:44:04Z</time>
      </trkpt>
      <trkpt lat="46.71636" lon="-1.67191">
        <ele>47</ele>
        <time>2018-03-19T06:45:04Z</time>
      </trkpt>
      <trkpt lat="46.71475" lon="-1.67053">
        <ele>51</ele>
        <time>2018-03-19T06:46:04Z</time>
      </trkpt>
      <trkpt lat="46.71162" lon="-1.668">
        <ele>40</ele>
        <time>2018-03-19T06:47:04Z</time>
      </trkpt>
      <trkpt lat="46.71061" lon="-1.66723">
        <ele>39</ele>
        <time>2018-03-19T06:48:04Z</time>
      </trkpt>
      <trkpt lat="46.70619" lon="-1.66371">
        <ele>42</ele>
        <time>2018-03-19T06:49:04Z</time>
      </trkpt>
      <trkpt lat="46.70522" lon="-1.66305">
        <ele>42</ele>
        <time>2018-03-19T06:50:04Z</time>
      </trkpt>
      <trkpt lat="46.70432" lon="-1.66188">
        <ele>39</ele>
        <time>2018-03-19T06:51:04Z</time>
      </trkpt>
      <trkpt lat="46.70299" lon="-1.65969">
        <ele>38</ele>
        <time>2018-03-19T06:52:04Z</time>
      </trkpt>
      <trkpt lat="46.70299" lon="-1.65969">
        <ele>38</ele>
        <time>2018-03-19T06:53:04Z</time>
      </trkpt>
      <trkpt lat="46.70225" lon="-1.65845">
        <ele>42</ele>
        <time>2018-03-19T06:54:04Z</time>
      </trkpt>
      <trkpt lat="46.70153" lon="-1.65737">
        <ele>43</ele>
        <time>2018-03-19T06:55:04Z</time>
      </trkpt>
      <trkpt lat="46.70028" lon="-1.65538">
        <ele>36</ele>
        <time>2018-03-19T06:56:04Z</time>
      </trkpt>
      <trkpt lat="46.69975" lon="-1.65444">
        <ele>33</ele>
        <time>2018-03-19T06:57:04Z</time>
      </trkpt>
      <trkpt lat="46.69915" lon="-1.65274">
        <ele>28</ele>
        <time>2018-03-19T06:58:04Z</time>
      </trkpt>
      <trkpt lat="46.6991" lon="-1.65258">
        <ele>28</ele>
        <time>2018-03-19T06:59:04Z</time>
      </trkpt>
      <trkpt lat="46.69889" lon="-1.65197">
        <ele>29</ele>
        <time>2018-03-19T07:00:04Z</time>
      </trkpt>
      <trkpt lat="46.69716" lon="-1.64643">
        <ele>32</ele>
        <time>2018-03-19T07:01:04Z</time>
      </trkpt>
      <trkpt lat="46.69633" lon="-1.64566">
        <ele>31</ele>
        <time>2018-03-19T07:02:04Z</time>
      </trkpt>
      <trkpt lat="46.69219" lon="-1.64264">
        <ele>39</ele>
        <time>2018-03-19T07:03:04Z</time>
      </trkpt>
      <trkpt lat="46.68912" lon="-1.63938">
        <ele>32</ele>
        <time>2018-03-19T07:04:04Z</time>
      </trkpt>
      <trkpt lat="46.68904" lon="-1.63901">
        <ele>31</ele>
        <time>2018-03-19T07:05:04Z</time>
      </trkpt>
      <trkpt lat="46.68894" lon="-1.63803">
        <ele>35</ele>
        <time>2018-03-19T07:06:04Z</time>
      </trkpt>
      <trkpt lat="46.68864" lon="-1.63708">
        <ele>39</ele>
        <time>2018-03-19T07:07:04Z</time>
      </trkpt>
      <trkpt lat="46.68864" lon="-1.63708">
        <ele>39</ele>
        <time>2018-03-19T07:08:04Z</time>
      </trkpt>
      <trkpt lat="46.68835" lon="-1.63618">
        <ele>41</ele>
        <time>2018-03-19T07:09:04Z</time>
      </trkpt>
      <trkpt lat="46.68745" lon="-1.6341">
        <ele>47</ele>
        <time>2018-03-19T07:10:04Z</time>
      </trkpt>
      <trkpt lat="46.68725" lon="-1.63323">
        <ele>49</ele>
        <time>2018-03-19T07:11:04Z</time>
      </trkpt>
      <trkpt lat="46.68722" lon="-1.63277">
        <ele>48</ele>
        <time>2018-03-19T07:12:04Z</time>
      </trkpt>
      <trkpt lat="46.68697" lon="-1.62637">
        <ele>55</ele>
        <time>2018-03-19T07:13:04Z</time>
      </trkpt>
      <trkpt lat="46.68683" lon="-1.62565">
        <ele>55</ele>
        <time>2018-03-19T07:14:04Z</time>
      </trkpt>
      <trkpt lat="46.6862" lon="-1.6242">
        <ele>56</ele>
        <time>2018-03-19T07:15:04Z</time>
      </trkpt>
      <trkpt lat="46.68593" lon="-1.62378">
        <ele>56</ele>
        <time>2018-03-19T07:16:04Z</time>
      </trkpt>
      <trkpt lat="46.68343" lon="-1.62075">
        <ele>56</ele>
        <time>2018-03-19T07:17:04Z</time>
      </trkpt>
      <trkpt lat="46.68255" lon="-1.61956">
        <ele>53</ele>
        <time>2018-03-19T07:18:04Z</time>
      </trkpt>
      <trkpt lat="46.68226" lon="-1.61926">
        <ele>52</ele>
        <time>2018-03-19T07:19:04Z</time>
      </trkpt>
      <trkpt lat="46.68127" lon="-1.61801">
        <ele>47</ele>
        <time>2018-03-19T07:20:04Z</time>
      </trkpt>
      <trkpt lat="46.68102" lon="-1.61775">
        <ele>46</ele>
        <time>2018-03-19T07:21:04Z</time>
      </trkpt>
      <trkpt lat="46.68044" lon="-1.61734">
        <ele>46</ele>
        <time>2018-03-19T07:22:04Z</time>
      </trkpt>
      <trkpt lat="46.67946" lon="-1.61684">
        <ele>43</ele>
        <time>2018-03-19T07:23:04Z</time>
      </trkpt>
      <trkpt lat="46.67924" lon="-1.6166">
        <ele>42</ele>
        <time>2018-03-19T07:24:04Z</time>
      </trkpt>
      <trkpt lat="46.67903" lon="-1.61574">
        <ele>43</ele>
        <time>2018-03-19T07:25:04Z</time>
      </trkpt>
      <trkpt lat="46.67882" lon="-1.61474">
        <ele>45</ele>
        <time>2018-03-19T07:26:04Z</time>
      </trkpt>
      <trkpt lat="46.67861" lon="-1.61353">
        <ele>48</ele>
        <time>2018-03-19T07:27:04Z</time>
      </trkpt>
      <trkpt lat="46.67852" lon="-1.61334">
        <ele>48</ele>
        <time>2018-03-19T07:28:04Z</time>
      </trkpt>
      <trkpt lat="46.67842" lon="-1.61319">
        <ele>49</ele>
        <time>2018-03-19T07:29:04Z</time>
      </trkpt>
      <trkpt lat="46.67833" lon="-1.61322">
        <ele>48</ele>
        <time>2018-03-19T07:30:04Z</time>
      </trkpt>
      <trkpt lat="46.67814" lon="-1.61316">
        <ele>48</ele>
        <time>2018-03-19T07:31:04Z</time>
      </trkpt>
      <trkpt lat="46.67804" lon="-1.61316">
        <ele>48</ele>
        <time>2018-03-19T07:32:04Z</time>
      </trkpt>
      <trkpt lat="46.67723" lon="-1.61294">
        <ele>45</ele>
        <time>2018-03-19T07:33:04Z</time>
      </trkpt>
      <trkpt lat="46.67665" lon="-1.61288">
        <ele>43</ele>
        <time>2018-03-19T07:34:04Z</time>
      </trkpt>
      <trkpt lat="46.6765" lon="-1.61284">
        <ele>42</ele>
        <time>2018-03-19T07:35:04Z</time>
      </trkpt>
      <trkpt lat="46.67616" lon="-1.61284">
        <ele>39</ele>
        <time>2018-03-19T07:36:04Z</time>
      </trkpt>
      <trkpt lat="46.6762" lon="-1.613">
        <ele>39</ele>
        <time>2018-03-19T07:37:04Z</time>
      </trkpt>
      <trkpt lat="46.67617" lon="-1.6133">
        <ele>38</ele>
        <time>2018-03-19T07:38:04Z</time>
      </trkpt>
      <trkpt lat="46.67601" lon="-1.6136">
        <ele>36</ele>
        <time>2018-03-19T07:39:04Z</time>
      </trkpt>
      <trkpt lat="46.67597" lon="-1.61372">
        <ele>36</ele>
        <time>2018-03-19T07:40:04Z</time>
      </trkpt>
      <trkpt lat="46.67597" lon="-1.61382">
        <ele>36</ele>
        <time>2018-03-19T07:41:04Z</time>
      </trkpt>
      <trkpt lat="46.6761" lon="-1.61437">
        <ele>36</ele>
        <time>2018-03-19T07:42:04Z</time>
      </trkpt>
      <trkpt lat="46.67615" lon="-1.61475">
        <ele>37</ele>
        <time>2018-03-19T07:43:04Z</time>
      </trkpt>
      <trkpt lat="46.67614" lon="-1.61534">
        <ele>36</ele>
        <time>2018-03-19T07:44:04Z</time>
      </trkpt>
      <trkpt lat="46.67602" lon="-1.6169">
        <ele>37</ele>
        <time>2018-03-19T07:45:04Z</time>
      </trkpt>
      <trkpt lat="46.67602" lon="-1.6169">
        <ele>37</ele>
        <time>2018-03-19T07:46:04Z</time>
      </trkpt>
      <trkpt lat="46.67598" lon="-1.61754">
        <ele>38</ele>
        <time>2018-03-19T07:47:04Z</time>
      </trkpt>
      <trkpt lat="46.6759" lon="-1.61815">
        <ele>38</ele>
        <time>2018-03-19T07:48:04Z</time>
      </trkpt>
      <trkpt lat="46.6756" lon="-1.61878">
        <ele>38</ele>
        <time>2018-03-19T07:49:04Z</time>
      </trkpt>
      <trkpt lat="46.67554" lon="-1.61914">
        <ele>37</ele>
        <time>2018-03-19T07:50:04Z</time>
      </trkpt>
      <trkpt lat="46.67556" lon="-1.61951">
        <ele>37</ele>
        <time>2018-03-19T07:51:04Z</time>
      </trkpt>
      <trkpt lat="46.67569" lon="-1.6201">
        <ele>36</ele>
        <time>2018-03-19T07:52:04Z</time>
      </trkpt>
      <trkpt lat="46.67584" lon="-1.62027">
        <ele>34</ele>
        <time>2018-03-19T07:53:04Z</time>
      </trkpt>
      <trkpt lat="46.67613" lon="-1.62039">
        <ele>34</ele>
        <time>2018-03-19T07:54:04Z</time>
      </trkpt>
      <trkpt lat="46.67639" lon="-1.62056">
        <ele>35</ele>
        <time>2018-03-19T07:55:04Z</time>
      </trkpt>
      <trkpt lat="46.67652" lon="-1.62098">
        <ele>35</ele>
        <time>2018-03-19T07:56:04Z</time>
      </trkpt>
      <trkpt lat="46.67692" lon="-1.62204">
        <ele>38</ele>
        <time>2018-03-19T07:57:04Z</time>
      </trkpt>
      <trkpt lat="46.677" lon="-1.62267">
        <ele>39</ele>
        <time>2018-03-19T07:58:04Z</time>
      </trkpt>
      <trkpt lat="46.677" lon="-1.62325">
        <ele>40</ele>
        <time>2018-03-19T07:59:04Z</time>
      </trkpt>
      <trkpt lat="46.67691" lon="-1.62403">
        <ele>41</ele>
        <time>2018-03-19T08:00:04Z</time>
      </trkpt>
      <trkpt lat="46.67655" lon="-1.62527">
        <ele>39</ele>
        <time>2018-03-19T08:01:04Z</time>
      </trkpt>
      <trkpt lat="46.67633" lon="-1.62621">
        <ele>38</ele>
        <time>2018-03-19T08:02:04Z</time>
      </trkpt>
      <trkpt lat="46.67622" lon="-1.62689">
        <ele>35</ele>
        <time>2018-03-19T08:03:04Z</time>
      </trkpt>
      <trkpt lat="46.67605" lon="-1.62925">
        <ele>44</ele>
        <time>2018-03-19T08:04:04Z</time>
      </trkpt>
      <trkpt lat="46.67613" lon="-1.62959">
        <ele>45</ele>
        <time>2018-03-19T08:05:04Z</time>
      </trkpt>
      <trkpt lat="46.67632" lon="-1.62998">
        <ele>46</ele>
        <time>2018-03-19T08:06:04Z</time>
      </trkpt>
      <trkpt lat="46.67673" lon="-1.63066">
        <ele>46</ele>
        <time>2018-03-19T08:07:04Z</time>
      </trkpt>
      <trkpt lat="46.67701" lon="-1.63143">
        <ele>44</ele>
        <time>2018-03-19T08:08:04Z</time>
      </trkpt>
      <trkpt lat="46.6771" lon="-1.63189">
        <ele>44</ele>
        <time>2018-03-19T08:09:04Z</time>
      </trkpt>
      <trkpt lat="46.67713" lon="-1.63236">
        <ele>44</ele>
        <time>2018-03-19T08:10:04Z</time>
      </trkpt>
      <trkpt lat="46.67706" lon="-1.63274">
        <ele>45</ele>
        <time>2018-03-19T08:11:04Z</time>
      </trkpt>
      <trkpt lat="46.67698" lon="-1.63303">
        <ele>45</ele>
        <time>2018-03-19T08:12:04Z</time>
      </trkpt>
      <trkpt lat="46.67668" lon="-1.63455">
        <ele>41</ele>
        <time>2018-03-19T08:13:04Z</time>
      </trkpt>
      <trkpt lat="46.6762" lon="-1.63563">
        <ele>43</ele>
        <time>2018-03-19T08:14:04Z</time>
      </trkpt>
      <trkpt lat="46.67558" lon="-1.63686">
        <ele>48</ele>
        <time>2018-03-19T08:15:04Z</time>
      </trkpt>
      <trkpt lat="46.67386" lon="-1.63942">
        <ele>57</ele>
        <time>2018-03-19T08:16:04Z</time>
      </trkpt>
      <trkpt lat="46.67311" lon="-1.64078">
        <ele>52</ele>
        <time>2018-03-19T08:17:04Z</time>
      </trkpt>
      <trkpt lat="46.67288" lon="-1.64128">
        <ele>48</ele>
        <time>2018-03-19T08:18:04Z</time>
      </trkpt>
      <trkpt lat="46.67273" lon="-1.64187">
        <ele>45</ele>
        <time>2018-03-19T08:19:04Z</time>
      </trkpt>
      <trkpt lat="46.67251" lon="-1.6433">
        <ele>41</ele>
        <time>2018-03-19T08:20:04Z</time>
      </trkpt>
      <trkpt lat="46.67257" lon="-1.64433">
        <ele>39</ele>
        <time>2018-03-19T08:21:04Z</time>
      </trkpt>
      <trkpt lat="46.67278" lon="-1.64536">
        <ele>38</ele>
        <time>2018-03-19T08:22:04Z</time>
      </trkpt>
      <trkpt lat="46.67325" lon="-1.64656">
        <ele>41</ele>
        <time>2018-03-19T08:23:04Z</time>
      </trkpt>
      <trkpt lat="46.67469" lon="-1.64889">
        <ele>47</ele>
        <time>2018-03-19T08:24:04Z</time>
      </trkpt>
      <trkpt lat="46.67499" lon="-1.64962">
        <ele>48</ele>
        <time>2018-03-19T08:25:04Z</time>
      </trkpt>
      <trkpt lat="46.67512" lon="-1.65137">
        <ele>46</ele>
        <time>2018-03-19T08:26:04Z</time>
      </trkpt>
      <trkpt lat="46.67521" lon="-1.65225">
        <ele>45</ele>
        <time>2018-03-19T08:27:04Z</time>
      </trkpt>
      <trkpt lat="46.67539" lon="-1.65489">
        <ele>45</ele>
        <time>2018-03-19T08:28:04Z</time>
      </trkpt>
      <trkpt lat="46.67539" lon="-1.65489">
        <ele>45</ele>
        <time>2018-03-19T08:29:04Z</time>
      </trkpt>
      <trkpt lat="46.67556" lon="-1.65754">
        <ele>47</ele>
        <time>2018-03-19T08:30:04Z</time>
      </trkpt>
      <trkpt lat="46.67602" lon="-1.66763">
        <ele>43</ele>
        <time>2018-03-19T08:31:04Z</time>
      </trkpt>
      <trkpt lat="46.67605" lon="-1.66922">
        <ele>42</ele>
        <time>2018-03-19T08:32:04Z</time>
      </trkpt>
      <trkpt lat="46.67587" lon="-1.67089">
        <ele>42</ele>
        <time>2018-03-19T08:33:04Z</time>
      </trkpt>
      <trkpt lat="46.67544" lon="-1.67329">
        <ele>39</ele>
        <time>2018-03-19T08:34:04Z</time>
      </trkpt>
      <trkpt lat="46.67514" lon="-1.67471">
        <ele>35</ele>
        <time>2018-03-19T08:35:04Z</time>
      </trkpt>
      <trkpt lat="46.67496" lon="-1.67587">
        <ele>27</ele>
        <time>2018-03-19T08:36:04Z</time>
      </trkpt>
      <trkpt lat="46.67493" lon="-1.67621">
        <ele>27</ele>
        <time>2018-03-19T08:37:04Z</time>
      </trkpt>
      <trkpt lat="46.67501" lon="-1.67757">
        <ele>33</ele>
        <time>2018-03-19T08:38:04Z</time>
      </trkpt>
      <trkpt lat="46.67512" lon="-1.67776">
        <ele>35</ele>
        <time>2018-03-19T08:39:04Z</time>
      </trkpt>
      <trkpt lat="46.6754" lon="-1.67777">
        <ele>34</ele>
        <time>2018-03-19T08:40:04Z</time>
      </trkpt>
      <trkpt lat="46.676" lon="-1.67786">
        <ele>34</ele>
        <time>2018-03-19T08:41:04Z</time>
      </trkpt>
      <trkpt lat="46.67612" lon="-1.67793">
        <ele>34</ele>
        <time>2018-03-19T08:42:04Z</time>
      </trkpt>
      <trkpt lat="46.67621" lon="-1.67805">
        <ele>35</ele>
        <time>2018-03-19T08:43:04Z</time>
      </trkpt>
      <trkpt lat="46.67629" lon="-1.67837">
        <ele>36</ele>
        <time>2018-03-19T08:44:04Z</time>
      </trkpt>
      <trkpt lat="46.67634" lon="-1.67867">
        <ele>36</ele>
        <time>2018-03-19T08:45:04Z</time>
      </trkpt>
      <trkpt lat="46.67631" lon="-1.67876">
        <ele>36</ele>
        <time>2018-03-19T08:46:04Z</time>
      </trkpt>
      <trkpt lat="46.67625" lon="-1.67888">
        <ele>36</ele>
        <time>2018-03-19T08:47:04Z</time>
      </trkpt>
      <trkpt lat="46.67566" lon="-1.67965">
        <ele>39</ele>
        <time>2018-03-19T08:48:04Z</time>
      </trkpt>
      <trkpt lat="46.67524" lon="-1.67994">
        <ele>41</ele>
        <time>2018-03-19T08:49:04Z</time>
      </trkpt>
      <trkpt lat="46.67463" lon="-1.68026">
        <ele>42</ele>
        <time>2018-03-19T08:50:04Z</time>
      </trkpt>
      <trkpt lat="46.67239" lon="-1.68071">
        <ele>43</ele>
        <time>2018-03-19T08:51:04Z</time>
      </trkpt>
      <trkpt lat="46.67161" lon="-1.68091">
        <ele>42</ele>
        <time>2018-03-19T08:52:04Z</time>
      </trkpt>
      <trkpt lat="46.67072" lon="-1.68127">
        <ele>43</ele>
        <time>2018-03-19T08:53:04Z</time>
      </trkpt>
      <trkpt lat="46.67006" lon="-1.6815">
        <ele>44</ele>
        <time>2018-03-19T08:54:04Z</time>
      </trkpt>
      <trkpt lat="46.66645" lon="-1.68258">
        <ele>48</ele>
        <time>2018-03-19T08:55:04Z</time>
      </trkpt>
      <trkpt lat="46.66612" lon="-1.68266">
        <ele>49</ele>
        <time>2018-03-19T08:56:04Z</time>
      </trkpt>
      <trkpt lat="46.66474" lon="-1.68281">
        <ele>51</ele>
        <time>2018-03-19T08:57:04Z</time>
      </trkpt>
      <trkpt lat="46.66474" lon="-1.68281">
        <ele>51</ele>
        <time>2018-03-19T08:58:04Z</time>
      </trkpt>
      <trkpt lat="46.66413" lon="-1.68288">
        <ele>51</ele>
        <time>2018-03-19T08:59:04Z</time>
      </trkpt>
      <trkpt lat="46.66388" lon="-1.68293">
        <ele>51</ele>
        <time>2018-03-19T09:00:04Z</time>
      </trkpt>
      <trkpt lat="46.66364" lon="-1.68304">
        <ele>51</ele>
        <time>2018-03-19T09:01:04Z</time>
      </trkpt>
      <trkpt lat="46.66334" lon="-1.68322">
        <ele>52</ele>
        <time>2018-03-19T09:02:04Z</time>
      </trkpt>
      <trkpt lat="46.65885" lon="-1.68963">
        <ele>53</ele>
        <time>2018-03-19T09:03:04Z</time>
      </trkpt>
      <trkpt lat="46.65833" lon="-1.69048">
        <ele>50</ele>
        <time>2018-03-19T09:04:04Z</time>
      </trkpt>
      <trkpt lat="46.65786" lon="-1.69166">
        <ele>47</ele>
        <time>2018-03-19T09:05:04Z</time>
      </trkpt>
      <trkpt lat="46.65626" lon="-1.69604">
        <ele>49</ele>
        <time>2018-03-19T09:06:04Z</time>
      </trkpt>
      <trkpt lat="46.65483" lon="-1.6999">
        <ele>56</ele>
        <time>2018-03-19T09:07:04Z</time>
      </trkpt>
      <trkpt lat="46.65447" lon="-1.70178">
        <ele>48</ele>
        <time>2018-03-19T09:08:04Z</time>
      </trkpt>
      <trkpt lat="46.65437" lon="-1.70202">
        <ele>46</ele>
        <time>2018-03-19T09:09:04Z</time>
      </trkpt>
      <trkpt lat="46.65427" lon="-1.70217">
        <ele>45</ele>
        <time>2018-03-19T09:10:04Z</time>
      </trkpt>
      <trkpt lat="46.65403" lon="-1.70237">
        <ele>42</ele>
        <time>2018-03-19T09:11:04Z</time>
      </trkpt>
      <trkpt lat="46.65351" lon="-1.70269">
        <ele>37</ele>
        <time>2018-03-19T09:12:04Z</time>
      </trkpt>
      <trkpt lat="46.6532" lon="-1.70295">
        <ele>35</ele>
        <time>2018-03-19T09:13:04Z</time>
      </trkpt>
      <trkpt lat="46.65271" lon="-1.7032">
        <ele>34</ele>
        <time>2018-03-19T09:14:04Z</time>
      </trkpt>
      <trkpt lat="46.64984" lon="-1.70365">
        <ele>41</ele>
        <time>2018-03-19T09:15:04Z</time>
      </trkpt>
      <trkpt lat="46.64984" lon="-1.70365">
        <ele>41</ele>
        <time>2018-03-19T09:16:04Z</time>
      </trkpt>
      <trkpt lat="46.64889" lon="-1.70381">
        <ele>43</ele>
        <time>2018-03-19T09:17:04Z</time>
      </trkpt>
      <trkpt lat="46.64804" lon="-1.70418">
        <ele>46</ele>
        <time>2018-03-19T09:18:04Z</time>
      </trkpt>
      <trkpt lat="46.64719" lon="-1.70461">
        <ele>49</ele>
        <time>2018-03-19T09:19:04Z</time>
      </trkpt>
      <trkpt lat="46.64707" lon="-1.70478">
        <ele>50</ele>
        <time>2018-03-19T09:20:04Z</time>
      </trkpt>
      <trkpt lat="46.64629" lon="-1.70536">
        <ele>53</ele>
        <time>2018-03-19T09:21:04Z</time>
      </trkpt>
      <trkpt lat="46.64592" lon="-1.70583">
        <ele>55</ele>
        <time>2018-03-19T09:22:04Z</time>
      </trkpt>
      <trkpt lat="46.64561" lon="-1.70615">
        <ele>56</ele>
        <time>2018-03-19T09:23:04Z</time>
      </trkpt>
      <trkpt lat="46.64481" lon="-1.70659">
        <ele>59</ele>
        <time>2018-03-19T09:24:04Z</time>
      </trkpt>
      <trkpt lat="46.64445" lon="-1.70683">
        <ele>59</ele>
        <time>2018-03-19T09:25:04Z</time>
      </trkpt>
      <trkpt lat="46.64408" lon="-1.70734">
        <ele>60</ele>
        <time>2018-03-19T09:26:04Z</time>
      </trkpt>
      <trkpt lat="46.64369" lon="-1.70799">
        <ele>59</ele>
        <time>2018-03-19T09:27:04Z</time>
      </trkpt>
      <trkpt lat="46.64337" lon="-1.70835">
        <ele>60</ele>
        <time>2018-03-19T09:28:04Z</time>
      </trkpt>
      <trkpt lat="46.6429" lon="-1.70866">
        <ele>58</ele>
        <time>2018-03-19T09:29:04Z</time>
      </trkpt>
      <trkpt lat="46.64212" lon="-1.70933">
        <ele>59</ele>
        <time>2018-03-19T09:30:04Z</time>
      </trkpt>
      <trkpt lat="46.64159" lon="-1.70988">
        <ele>60</ele>
        <time>2018-03-19T09:31:04Z</time>
      </trkpt>
      <trkpt lat="46.64116" lon="-1.71049">
        <ele>59</ele>
        <time>2018-03-19T09:32:04Z</time>
      </trkpt>
      <trkpt lat="46.64042" lon="-1.71133">
        <ele>57</ele>
        <time>2018-03-19T09:33:04Z</time>
      </trkpt>
      <trkpt lat="46.64022" lon="-1.71156">
        <ele>57</ele>
        <time>2018-03-19T09:34:04Z</time>
      </trkpt>
      <trkpt lat="46.64064" lon="-1.71233">
        <ele>57</ele>
        <time>2018-03-19T09:35:04Z</time>
      </trkpt>
      <trkpt lat="46.64064" lon="-1.71241">
        <ele>57</ele>
        <time>2018-03-19T09:36:04Z</time>
      </trkpt>
      <trkpt lat="46.64047" lon="-1.71401">
        <ele>59</ele>
        <time>2018-03-19T09:37:04Z</time>
      </trkpt>
      <trkpt lat="46.6405" lon="-1.71423">
        <ele>59</ele>
        <time>2018-03-19T09:38:04Z</time>
      </trkpt>
      <trkpt lat="46.64068" lon="-1.71468">
        <ele>58</ele>
        <time>2018-03-19T09:39:04Z</time>
      </trkpt>
      <trkpt lat="46.64085" lon="-1.71501">
        <ele>57</ele>
        <time>2018-03-19T09:40:04Z</time>
      </trkpt>
      <trkpt lat="46.64091" lon="-1.71521">
        <ele>57</ele>
        <time>2018-03-19T09:41:04Z</time>
      </trkpt>
      <trkpt lat="46.64129" lon="-1.71511">
        <ele>57</ele>
        <time>2018-03-19T09:42:04Z</time>
      </trkpt>
      <trkpt lat="46.64256" lon="-1.71517">
        <ele>54</ele>
        <time>2018-03-19T09:43:04Z</time>
      </trkpt>
      <trkpt lat="46.64256" lon="-1.71517">
        <ele>54</ele>
        <time>2018-03-19T09:44:04Z</time>
      </trkpt>
      <trkpt lat="46.64398" lon="-1.71517">
        <ele>52</ele>
        <time>2018-03-19T09:45:04Z</time>
      </trkpt>
      <trkpt lat="46.64407" lon="-1.71615">
        <ele>54</ele>
        <time>2018-03-19T09:46:04Z</time>
      </trkpt>
      <trkpt lat="46.64421" lon="-1.71731">
        <ele>56</ele>
        <time>2018-03-19T09:47:04Z</time>
      </trkpt>
      <trkpt lat="46.64433" lon="-1.71762">
        <ele>56</ele>
        <time>2018-03-19T09:48:04Z</time>
      </trkpt>
      <trkpt lat="46.64456" lon="-1.71817">
        <ele>56</ele>
        <time>2018-03-19T09:49:04Z</time>
      </trkpt>
      <trkpt lat="46.64465" lon="-1.71834">
        <ele>56</ele>
        <time>2018-03-19T09:50:04Z</time>
      </trkpt>
      <trkpt lat="46.64494" lon="-1.71959">
        <ele>57</ele>
        <time>2018-03-19T09:51:04Z</time>
      </trkpt>
      <trkpt lat="46.64506" lon="-1.72061">
        <ele>57</ele>
        <time>2018-03-19T09:52:04Z</time>
      </trkpt>
      <trkpt lat="46.64514" lon="-1.72169">
        <ele>58</ele>
        <time>2018-03-19T09:53:04Z</time>
      </trkpt>
      <trkpt lat="46.6453" lon="-1.72313">
        <ele>59</ele>
        <time>2018-03-19T09:54:04Z</time>
      </trkpt>
      <trkpt lat="46.64575" lon="-1.72551">
        <ele>59</ele>
        <time>2018-03-19T09:55:04Z</time>
      </trkpt>
      <trkpt lat="46.64606" lon="-1.72634">
        <ele>59</ele>
        <time>2018-03-19T09:56:04Z</time>
      </trkpt>
      <trkpt lat="46.64624" lon="-1.72708">
        <ele>58</ele>
        <time>2018-03-19T09:57:04Z</time>
      </trkpt>
      <trkpt lat="46.64628" lon="-1.72856">
        <ele>58</ele>
        <time>2018-03-19T09:58:04Z</time>
      </trkpt>
      <trkpt lat="46.64633" lon="-1.72907">
        <ele>58</ele>
        <time>2018-03-19T09:59:04Z</time>
      </trkpt>
      <trkpt lat="46.64649" lon="-1.72958">
        <ele>58</ele>
        <time>2018-03-19T10:00:04Z</time>
      </trkpt>
      <trkpt lat="46.64733" lon="-1.73131">
        <ele>58</ele>
        <time>2018-03-19T10:01:04Z</time>
      </trkpt>
      <trkpt lat="46.64791" lon="-1.73256">
        <ele>56</ele>
        <time>2018-03-19T10:02:04Z</time>
      </trkpt>
      <trkpt lat="46.64829" lon="-1.73332">
        <ele>55</ele>
        <time>2018-03-19T10:03:04Z</time>
      </trkpt>
      <trkpt lat="46.64829" lon="-1.73332">
        <ele>55</ele>
        <time>2018-03-19T10:04:04Z</time>
      </trkpt>
      <trkpt lat="46.64855" lon="-1.73383">
        <ele>56</ele>
        <time>2018-03-19T10:05:04Z</time>
      </trkpt>
      <trkpt lat="46.64969" lon="-1.73567">
        <ele>55</ele>
        <time>2018-03-19T10:06:04Z</time>
      </trkpt>
      <trkpt lat="46.6503" lon="-1.73634">
        <ele>55</ele>
        <time>2018-03-19T10:07:04Z</time>
      </trkpt>
      <trkpt lat="46.6509" lon="-1.73712">
        <ele>55</ele>
        <time>2018-03-19T10:08:04Z</time>
      </trkpt>
      <trkpt lat="46.65303" lon="-1.73955">
        <ele>53</ele>
        <time>2018-03-19T10:09:04Z</time>
      </trkpt>
      <trkpt lat="46.65395" lon="-1.74097">
        <ele>54</ele>
        <time>2018-03-19T10:10:04Z</time>
      </trkpt>
      <trkpt lat="46.65436" lon="-1.74168">
        <ele>55</ele>
        <time>2018-03-19T10:11:04Z</time>
      </trkpt>
      <trkpt lat="46.65521" lon="-1.74318">
        <ele>53</ele>
        <time>2018-03-19T10:12:04Z</time>
      </trkpt>
      <trkpt lat="46.65537" lon="-1.74338">
        <ele>53</ele>
        <time>2018-03-19T10:13:04Z</time>
      </trkpt>
      <trkpt lat="46.65607" lon="-1.74385">
        <ele>51</ele>
        <time>2018-03-19T10:14:04Z</time>
      </trkpt>
      <trkpt lat="46.65757" lon="-1.74496">
        <ele>47</ele>
        <time>2018-03-19T10:15:04Z</time>
      </trkpt>
      <trkpt lat="46.65778" lon="-1.74518">
        <ele>45</ele>
        <time>2018-03-19T10:16:04Z</time>
      </trkpt>
      <trkpt lat="46.65806" lon="-1.74554">
        <ele>45</ele>
        <time>2018-03-19T10:17:04Z</time>
      </trkpt>
      <trkpt lat="46.65876" lon="-1.74671">
        <ele>41</ele>
        <time>2018-03-19T10:18:04Z</time>
      </trkpt>
      <trkpt lat="46.65897" lon="-1.74699">
        <ele>39</ele>
        <time>2018-03-19T10:19:04Z</time>
      </trkpt>
      <trkpt lat="46.65922" lon="-1.74722">
        <ele>38</ele>
        <time>2018-03-19T10:20:04Z</time>
      </trkpt>
      <trkpt lat="46.65964" lon="-1.74754">
        <ele>34</ele>
        <time>2018-03-19T10:21:04Z</time>
      </trkpt>
      <trkpt lat="46.66042" lon="-1.74795">
        <ele>27</ele>
        <time>2018-03-19T10:22:04Z</time>
      </trkpt>
      <trkpt lat="46.66114" lon="-1.74825">
        <ele>23</ele>
        <time>2018-03-19T10:23:04Z</time>
      </trkpt>
      <trkpt lat="46.66162" lon="-1.74829">
        <ele>20</ele>
        <time>2018-03-19T10:24:04Z</time>
      </trkpt>
      <trkpt lat="46.66186" lon="-1.74827">
        <ele>18</ele>
        <time>2018-03-19T10:25:04Z</time>
      </trkpt>
      <trkpt lat="46.66194" lon="-1.74869">
        <ele>18</ele>
        <time>2018-03-19T10:26:04Z</time>
      </trkpt>
      <trkpt lat="46.6621" lon="-1.74927">
        <ele>17</ele>
        <time>2018-03-19T10:27:04Z</time>
      </trkpt>
      <trkpt lat="46.66208" lon="-1.74947">
        <ele>16</ele>
        <time>2018-03-19T10:28:04Z</time>
      </trkpt>
      <trkpt lat="46.662" lon="-1.7497">
        <ele>16</ele>
        <time>2018-03-19T10:29:04Z</time>
      </trkpt>
      <trkpt lat="46.66146" lon="-1.7506">
        <ele>14</ele>
        <time>2018-03-19T10:30:04Z</time>
      </trkpt>
      <trkpt lat="46.66018" lon="-1.75286">
        <ele>16</ele>
        <time>2018-03-19T10:31:04Z</time>
      </trkpt>
      <trkpt lat="46.66011" lon="-1.75298">
        <ele>16</ele>
        <time>2018-03-19T10:32:04Z</time>
      </trkpt>
      <trkpt lat="46.66008" lon="-1.75308">
        <ele>16</ele>
        <time>2018-03-19T10:33:04Z</time>
      </trkpt>
      <trkpt lat="46.66007" lon="-1.75315">
        <ele>16</ele>
        <time>2018-03-19T10:34:04Z</time>
      </trkpt>
      <trkpt lat="46.66007" lon="-1.7533">
        <ele>16</ele>
        <time>2018-03-19T10:35:04Z</time>
      </trkpt>
      <trkpt lat="46.66011" lon="-1.75343">
        <ele>16</ele>
        <time>2018-03-19T10:36:04Z</time>
      </trkpt>
      <trkpt lat="46.66014" lon="-1.75349">
        <ele>16</ele>
        <time>2018-03-19T10:37:04Z</time>
      </trkpt>
      <trkpt lat="46.66023" lon="-1.75358">
        <ele>16</ele>
        <time>2018-03-19T10:38:04Z</time>
      </trkpt>
      <trkpt lat="46.66043" lon="-1.75365">
        <ele>18</ele>
        <time>2018-03-19T10:39:04Z</time>
      </trkpt>
      <trkpt lat="46.6615" lon="-1.7539">
        <ele>26</ele>
        <time>2018-03-19T10:40:04Z</time>
      </trkpt>
      <trkpt lat="46.66186" lon="-1.75394">
        <ele>27</ele>
        <time>2018-03-19T10:41:04Z</time>
      </trkpt>
      <trkpt lat="46.66186" lon="-1.75394">
        <ele>27</ele>
        <time>2018-03-19T10:42:04Z</time>
      </trkpt>
      <trkpt lat="46.6621" lon="-1.75396">
        <ele>28</ele>
        <time>2018-03-19T10:43:04Z</time>
      </trkpt>
      <trkpt lat="46.66316" lon="-1.754">
        <ele>30</ele>
        <time>2018-03-19T10:44:04Z</time>
      </trkpt>
      <trkpt lat="46.66328" lon="-1.75408">
        <ele>31</ele>
        <time>2018-03-19T10:45:04Z</time>
      </trkpt>
      <trkpt lat="46.66344" lon="-1.75435">
        <ele>31</ele>
        <time>2018-03-19T10:46:04Z</time>
      </trkpt>
      <trkpt lat="46.66355" lon="-1.7545">
        <ele>31</ele>
        <time>2018-03-19T10:47:04Z</time>
      </trkpt>
      <trkpt lat="46.66382" lon="-1.75465">
        <ele>32</ele>
        <time>2018-03-19T10:48:04Z</time>
      </trkpt>
      <trkpt lat="46.66401" lon="-1.75473">
        <ele>33</ele>
        <time>2018-03-19T10:49:04Z</time>
      </trkpt>
      <trkpt lat="46.66418" lon="-1.75477">
        <ele>34</ele>
        <time>2018-03-19T10:50:04Z</time>
      </trkpt>
      <trkpt lat="46.66459" lon="-1.75479">
        <ele>39</ele>
        <time>2018-03-19T10:51:04Z</time>
      </trkpt>
      <trkpt lat="46.66525" lon="-1.75466">
        <ele>47</ele>
        <time>2018-03-19T10:52:04Z</time>
      </trkpt>
      <trkpt lat="46.66553" lon="-1.7547">
        <ele>48</ele>
        <time>2018-03-19T10:53:04Z</time>
      </trkpt>
      <trkpt lat="46.66623" lon="-1.75499">
        <ele>50</ele>
        <time>2018-03-19T10:54:04Z</time>
      </trkpt>
      <trkpt lat="46.66676" lon="-1.7549">
        <ele>49</ele>
        <time>2018-03-19T10:55:04Z</time>
      </trkpt>
      <trkpt lat="46.66701" lon="-1.75488">
        <ele>48</ele>
        <time>2018-03-19T10:56:04Z</time>
      </trkpt>
      <trkpt lat="46.66743" lon="-1.75499">
        <ele>47</ele>
        <time>2018-03-19T10:57:04Z</time>
      </trkpt>
      <trkpt lat="46.66796" lon="-1.75517">
        <ele>46</ele>
        <time>2018-03-19T10:58:04Z</time>
      </trkpt>
      <trkpt lat="46.66812" lon="-1.7553">
        <ele>45</ele>
        <time>2018-03-19T10:59:04Z</time>
      </trkpt>
      <trkpt lat="46.66859" lon="-1.75577">
        <ele>47</ele>
        <time>2018-03-19T11:00:04Z</time>
      </trkpt>
      <trkpt lat="46.66877" lon="-1.75591">
        <ele>47</ele>
        <time>2018-03-19T11:01:04Z</time>
      </trkpt>
      <trkpt lat="46.66892" lon="-1.75599">
        <ele>47</ele>
        <time>2018-03-19T11:02:04Z</time>
      </trkpt>
      <trkpt lat="46.6692" lon="-1.75606">
        <ele>48</ele>
        <time>2018-03-19T11:03:04Z</time>
      </trkpt>
      <trkpt lat="46.66972" lon="-1.75615">
        <ele>48</ele>
        <time>2018-03-19T11:04:04Z</time>
      </trkpt>
      <trkpt lat="46.66989" lon="-1.75623">
        <ele>49</ele>
        <time>2018-03-19T11:05:04Z</time>
      </trkpt>
      <trkpt lat="46.66998" lon="-1.75633">
        <ele>49</ele>
        <time>2018-03-19T11:06:04Z</time>
      </trkpt>
      <trkpt lat="46.67011" lon="-1.75655">
        <ele>50</ele>
        <time>2018-03-19T11:07:04Z</time>
      </trkpt>
      <trkpt lat="46.67017" lon="-1.7567">
        <ele>51</ele>
        <time>2018-03-19T11:08:04Z</time>
      </trkpt>
      <trkpt lat="46.67037" lon="-1.75739">
        <ele>51</ele>
        <time>2018-03-19T11:09:04Z</time>
      </trkpt>
      <trkpt lat="46.67053" lon="-1.75778">
        <ele>51</ele>
        <time>2018-03-19T11:10:04Z</time>
      </trkpt>
      <trkpt lat="46.67058" lon="-1.75796">
        <ele>51</ele>
        <time>2018-03-19T11:11:04Z</time>
      </trkpt>
      <trkpt lat="46.67067" lon="-1.75841">
        <ele>51</ele>
        <time>2018-03-19T11:12:04Z</time>
      </trkpt>
      <trkpt lat="46.67107" lon="-1.75929">
        <ele>51</ele>
        <time>2018-03-19T11:13:04Z</time>
      </trkpt>
      <trkpt lat="46.67117" lon="-1.75948">
        <ele>52</ele>
        <time>2018-03-19T11:14:04Z</time>
      </trkpt>
      <trkpt lat="46.67129" lon="-1.75959">
        <ele>52</ele>
        <time>2018-03-19T11:15:04Z</time>
      </trkpt>
      <trkpt lat="46.67139" lon="-1.75961">
        <ele>52</ele>
        <time>2018-03-19T11:16:04Z</time>
      </trkpt>
      <trkpt lat="46.67149" lon="-1.75958">
        <ele>52</ele>
        <time>2018-03-19T11:17:04Z</time>
      </trkpt>
      <trkpt lat="46.67302" lon="-1.75864">
        <ele>52</ele>
        <time>2018-03-19T11:18:04Z</time>
      </trkpt>
      <trkpt lat="46.67293" lon="-1.75958">
        <ele>52</ele>
        <time>2018-03-19T11:19:04Z</time>
      </trkpt>
      <trkpt lat="46.67293" lon="-1.75958">
        <ele>52</ele>
        <time>2018-03-19T11:20:04Z</time>
      </trkpt>
      <trkpt lat="46.67273" lon="-1.76149">
        <ele>52</ele>
        <time>2018-03-19T11:21:04Z</time>
      </trkpt>
      <trkpt lat="46.67266" lon="-1.76182">
        <ele>52</ele>
        <time>2018-03-19T11:22:04Z</time>
      </trkpt>
      <trkpt lat="46.67254" lon="-1.76216">
        <ele>51</ele>
        <time>2018-03-19T11:23:04Z</time>
      </trkpt>
      <trkpt lat="46.67227" lon="-1.76279">
        <ele>51</ele>
        <time>2018-03-19T11:24:04Z</time>
      </trkpt>
      <trkpt lat="46.67183" lon="-1.76373">
        <ele>51</ele>
        <time>2018-03-19T11:25:04Z</time>
      </trkpt>
      <trkpt lat="46.67124" lon="-1.76584">
        <ele>50</ele>
        <time>2018-03-19T11:26:04Z</time>
      </trkpt>
      <trkpt lat="46.67111" lon="-1.76733">
        <ele>52</ele>
        <time>2018-03-19T11:27:04Z</time>
      </trkpt>
      <trkpt lat="46.67066" lon="-1.76949">
        <ele>52</ele>
        <time>2018-03-19T11:28:04Z</time>
      </trkpt>
      <trkpt lat="46.6704" lon="-1.77136">
        <ele>50</ele>
        <time>2018-03-19T11:29:04Z</time>
      </trkpt>
      <trkpt lat="46.67007" lon="-1.77313">
        <ele>48</ele>
        <time>2018-03-19T11:30:04Z</time>
      </trkpt>
      <trkpt lat="46.66956" lon="-1.77512">
        <ele>47</ele>
        <time>2018-03-19T11:31:04Z</time>
      </trkpt>
      <trkpt lat="46.66957" lon="-1.77549">
        <ele>46</ele>
        <time>2018-03-19T11:32:04Z</time>
      </trkpt>
      <trkpt lat="46.67038" lon="-1.77718">
        <ele>44</ele>
        <time>2018-03-19T11:33:04Z</time>
      </trkpt>
      <trkpt lat="46.67038" lon="-1.77718">
        <ele>44</ele>
        <time>2018-03-19T11:34:04Z</time>
      </trkpt>
      <trkpt lat="46.67143" lon="-1.77934">
        <ele>42</ele>
        <time>2018-03-19T11:35:04Z</time>
      </trkpt>
      <trkpt lat="46.67151" lon="-1.77963">
        <ele>42</ele>
        <time>2018-03-19T11:36:04Z</time>
      </trkpt>
      <trkpt lat="46.67163" lon="-1.78119">
        <ele>41</ele>
        <time>2018-03-19T11:37:04Z</time>
      </trkpt>
      <trkpt lat="46.67171" lon="-1.78155">
        <ele>40</ele>
        <time>2018-03-19T11:38:04Z</time>
      </trkpt>
      <trkpt lat="46.67186" lon="-1.78214">
        <ele>39</ele>
        <time>2018-03-19T11:39:04Z</time>
      </trkpt>
      <trkpt lat="46.67198" lon="-1.78225">
        <ele>38</ele>
        <time>2018-03-19T11:40:04Z</time>
      </trkpt>
      <trkpt lat="46.67321" lon="-1.78286">
        <ele>37</ele>
        <time>2018-03-19T11:41:04Z</time>
      </trkpt>
      <trkpt lat="46.67334" lon="-1.78296">
        <ele>36</ele>
        <time>2018-03-19T11:42:04Z</time>
      </trkpt>
      <trkpt lat="46.67343" lon="-1.78307">
        <ele>37</ele>
        <time>2018-03-19T11:43:04Z</time>
      </trkpt>
      <trkpt lat="46.67355" lon="-1.78332">
        <ele>37</ele>
        <time>2018-03-19T11:44:04Z</time>
      </trkpt>
      <trkpt lat="46.6737" lon="-1.78381">
        <ele>37</ele>
        <time>2018-03-19T11:45:04Z</time>
      </trkpt>
      <trkpt lat="46.67392" lon="-1.78436">
        <ele>37</ele>
        <time>2018-03-19T11:46:04Z</time>
      </trkpt>
      <trkpt lat="46.67432" lon="-1.78527">
        <ele>36</ele>
        <time>2018-03-19T11:47:04Z</time>
      </trkpt>
      <trkpt lat="46.67456" lon="-1.78575">
        <ele>36</ele>
        <time>2018-03-19T11:48:04Z</time>
      </trkpt>
      <trkpt lat="46.67472" lon="-1.78624">
        <ele>35</ele>
        <time>2018-03-19T11:49:04Z</time>
      </trkpt>
      <trkpt lat="46.67544" lon="-1.78914">
        <ele>37</ele>
        <time>2018-03-19T11:50:04Z</time>
      </trkpt>
      <trkpt lat="46.67551" lon="-1.78947">
        <ele>38</ele>
        <time>2018-03-19T11:51:04Z</time>
      </trkpt>
      <trkpt lat="46.67565" lon="-1.79046">
        <ele>41</ele>
        <time>2018-03-19T11:52:04Z</time>
      </trkpt>
      <trkpt lat="46.67573" lon="-1.79109">
        <ele>42</ele>
        <time>2018-03-19T11:53:04Z</time>
      </trkpt>
      <trkpt lat="46.67578" lon="-1.79326">
        <ele>42</ele>
        <time>2018-03-19T11:54:04Z</time>
      </trkpt>
      <trkpt lat="46.67585" lon="-1.79399">
        <ele>41</ele>
        <time>2018-03-19T11:55:04Z</time>
      </trkpt>
      <trkpt lat="46.67623" lon="-1.79493">
        <ele>40</ele>
        <time>2018-03-19T11:56:04Z</time>
      </trkpt>
      <trkpt lat="46.67631" lon="-1.79558">
        <ele>40</ele>
        <time>2018-03-19T11:57:04Z</time>
      </trkpt>
      <trkpt lat="46.67629" lon="-1.79606">
        <ele>40</ele>
        <time>2018-03-19T11:58:04Z</time>
      </trkpt>
      <trkpt lat="46.67618" lon="-1.79653">
        <ele>40</ele>
        <time>2018-03-19T11:59:04Z</time>
      </trkpt>
      <trkpt lat="46.67618" lon="-1.79653">
        <ele>40</ele>
        <time>2018-03-19T12:00:04Z</time>
      </trkpt>
      <trkpt lat="46.67606" lon="-1.79702">
        <ele>41</ele>
        <time>2018-03-19T12:01:04Z</time>
      </trkpt>
      <trkpt lat="46.67595" lon="-1.79847">
        <ele>42</ele>
        <time>2018-03-19T12:02:04Z</time>
      </trkpt>
      <trkpt lat="46.6756" lon="-1.7996">
        <ele>40</ele>
        <time>2018-03-19T12:03:04Z</time>
      </trkpt>
      <trkpt lat="46.67548" lon="-1.80079">
        <ele>38</ele>
        <time>2018-03-19T12:04:04Z</time>
      </trkpt>
      <trkpt lat="46.67549" lon="-1.80167">
        <ele>37</ele>
        <time>2018-03-19T12:05:04Z</time>
      </trkpt>
      <trkpt lat="46.67567" lon="-1.80309">
        <ele>37</ele>
        <time>2018-03-19T12:06:04Z</time>
      </trkpt>
      <trkpt lat="46.67571" lon="-1.80487">
        <ele>37</ele>
        <time>2018-03-19T12:07:04Z</time>
      </trkpt>
      <trkpt lat="46.67568" lon="-1.80782">
        <ele>36</ele>
        <time>2018-03-19T12:08:04Z</time>
      </trkpt>
      <trkpt lat="46.67534" lon="-1.80951">
        <ele>34</ele>
        <time>2018-03-19T12:09:04Z</time>
      </trkpt>
      <trkpt lat="46.6751" lon="-1.8106">
        <ele>31</ele>
        <time>2018-03-19T12:10:04Z</time>
      </trkpt>
      <trkpt lat="46.67504" lon="-1.81301">
        <ele>35</ele>
        <time>2018-03-19T12:11:04Z</time>
      </trkpt>
      <trkpt lat="46.67469" lon="-1.81421">
        <ele>35</ele>
        <time>2018-03-19T12:12:04Z</time>
      </trkpt>
      <trkpt lat="46.67428" lon="-1.81584">
        <ele>32</ele>
        <time>2018-03-19T12:13:04Z</time>
      </trkpt>
      <trkpt lat="46.67399" lon="-1.81821">
        <ele>32</ele>
        <time>2018-03-19T12:14:04Z</time>
      </trkpt>
      <trkpt lat="46.67325" lon="-1.82027">
        <ele>33</ele>
        <time>2018-03-19T12:15:04Z</time>
      </trkpt>
      <trkpt lat="46.673" lon="-1.82112">
        <ele>32</ele>
        <time>2018-03-19T12:16:04Z</time>
      </trkpt>
      <trkpt lat="46.67276" lon="-1.82183">
        <ele>32</ele>
        <time>2018-03-19T12:17:04Z</time>
      </trkpt>
      <trkpt lat="46.67248" lon="-1.82256">
        <ele>32</ele>
        <time>2018-03-19T12:18:04Z</time>
      </trkpt>
      <trkpt lat="46.67184" lon="-1.82399">
        <ele>32</ele>
        <time>2018-03-19T12:19:04Z</time>
      </trkpt>
      <trkpt lat="46.67184" lon="-1.82399">
        <ele>32</ele>
        <time>2018-03-19T12:20:04Z</time>
      </trkpt>
      <trkpt lat="46.6714" lon="-1.82497">
        <ele>31</ele>
        <time>2018-03-19T12:21:04Z</time>
      </trkpt>
      <trkpt lat="46.67092" lon="-1.82573">
        <ele>28</ele>
        <time>2018-03-19T12:22:04Z</time>
      </trkpt>
      <trkpt lat="46.67079" lon="-1.82604">
        <ele>26</ele>
        <time>2018-03-19T12:23:04Z</time>
      </trkpt>
      <trkpt lat="46.67075" lon="-1.82661">
        <ele>23</ele>
        <time>2018-03-19T12:24:04Z</time>
      </trkpt>
      <trkpt lat="46.67079" lon="-1.82667">
        <ele>23</ele>
        <time>2018-03-19T12:25:04Z</time>
      </trkpt>
      <trkpt lat="46.67081" lon="-1.82675">
        <ele>23</ele>
        <time>2018-03-19T12:26:04Z</time>
      </trkpt>
      <trkpt lat="46.6708" lon="-1.82681">
        <ele>22</ele>
        <time>2018-03-19T12:27:04Z</time>
      </trkpt>
      <trkpt lat="46.67084" lon="-1.82684">
        <ele>22</ele>
        <time>2018-03-19T12:28:04Z</time>
      </trkpt>
      <trkpt lat="46.67342" lon="-1.83047">
        <ele>27</ele>
        <time>2018-03-19T12:29:04Z</time>
      </trkpt>
      <trkpt lat="46.67476" lon="-1.83231">
        <ele>26</ele>
        <time>2018-03-19T12:30:04Z</time>
      </trkpt>
      <trkpt lat="46.6735" lon="-1.83422">
        <ele>24</ele>
        <time>2018-03-19T12:31:04Z</time>
      </trkpt>
      <trkpt lat="46.6735" lon="-1.83422">
        <ele>24</ele>
        <time>2018-03-19T12:32:04Z</time>
      </trkpt>
      <trkpt lat="46.67337" lon="-1.83437">
        <ele>24</ele>
        <time>2018-03-19T12:33:04Z</time>
      </trkpt>
      <trkpt lat="46.67327" lon="-1.83443">
        <ele>24</ele>
        <time>2018-03-19T12:34:04Z</time>
      </trkpt>
      <trkpt lat="46.67203" lon="-1.83472">
        <ele>21</ele>
        <time>2018-03-19T12:35:04Z</time>
      </trkpt>
      <trkpt lat="46.67224" lon="-1.83555">
        <ele>20</ele>
        <time>2018-03-19T12:36:04Z</time>
      </trkpt>
      <trkpt lat="46.67238" lon="-1.83711">
        <ele>22</ele>
        <time>2018-03-19T12:37:04Z</time>
      </trkpt>
      <trkpt lat="46.67254" lon="-1.83853">
        <ele>23</ele>
        <time>2018-03-19T12:38:04Z</time>
      </trkpt>
      <trkpt lat="46.67257" lon="-1.83916">
        <ele>23</ele>
        <time>2018-03-19T12:39:04Z</time>
      </trkpt>
      <trkpt lat="46.67247" lon="-1.84217">
        <ele>21</ele>
        <time>2018-03-19T12:40:04Z</time>
      </trkpt>
      <trkpt lat="46.67166" lon="-1.84842">
        <ele>18</ele>
        <time>2018-03-19T12:41:04Z</time>
      </trkpt>
      <trkpt lat="46.67162" lon="-1.84895">
        <ele>18</ele>
        <time>2018-03-19T12:42:04Z</time>
      </trkpt>
      <trkpt lat="46.67162" lon="-1.8493">
        <ele>18</ele>
        <time>2018-03-19T12:43:04Z</time>
      </trkpt>
      <trkpt lat="46.67164" lon="-1.84956">
        <ele>18</ele>
        <time>2018-03-19T12:44:04Z</time>
      </trkpt>
      <trkpt lat="46.67175" lon="-1.85022">
        <ele>18</ele>
        <time>2018-03-19T12:45:04Z</time>
      </trkpt>
      <trkpt lat="46.67218" lon="-1.85175">
        <ele>19</ele>
        <time>2018-03-19T12:46:04Z</time>
      </trkpt>
      <trkpt lat="46.67218" lon="-1.85175">
        <ele>19</ele>
        <time>2018-03-19T12:47:04Z</time>
      </trkpt>
      <trkpt lat="46.67255" lon="-1.85306">
        <ele>20</ele>
        <time>2018-03-19T12:48:04Z</time>
      </trkpt>
      <trkpt lat="46.67263" lon="-1.85355">
        <ele>19</ele>
        <time>2018-03-19T12:49:04Z</time>
      </trkpt>
      <trkpt lat="46.67296" lon="-1.85758">
        <ele>16</ele>
        <time>2018-03-19T12:50:04Z</time>
      </trkpt>
      <trkpt lat="46.67302" lon="-1.85841">
        <ele>16</ele>
        <time>2018-03-19T12:51:04Z</time>
      </trkpt>
      <trkpt lat="46.67304" lon="-1.85932">
        <ele>15</ele>
        <time>2018-03-19T12:52:04Z</time>
      </trkpt>
      <trkpt lat="46.67301" lon="-1.85999">
        <ele>15</ele>
        <time>2018-03-19T12:53:04Z</time>
      </trkpt>
      <trkpt lat="46.67298" lon="-1.86035">
        <ele>14</ele>
        <time>2018-03-19T12:54:04Z</time>
      </trkpt>
      <trkpt lat="46.67286" lon="-1.86119">
        <ele>12</ele>
        <time>2018-03-19T12:55:04Z</time>
      </trkpt>
      <trkpt lat="46.67275" lon="-1.86168">
        <ele>12</ele>
        <time>2018-03-19T12:56:04Z</time>
      </trkpt>
      <trkpt lat="46.67251" lon="-1.86231">
        <ele>11</ele>
        <time>2018-03-19T12:57:04Z</time>
      </trkpt>
      <trkpt lat="46.67248" lon="-1.86246">
        <ele>10</ele>
        <time>2018-03-19T12:58:04Z</time>
      </trkpt>
      <trkpt lat="46.67245" lon="-1.86265">
        <ele>10</ele>
        <time>2018-03-19T12:59:04Z</time>
      </trkpt>
      <trkpt lat="46.67241" lon="-1.86351">
        <ele>10</ele>
        <time>2018-03-19T13:00:04Z</time>
      </trkpt>
      <trkpt lat="46.67236" lon="-1.86403">
        <ele>10</ele>
        <time>2018-03-19T13:01:04Z</time>
      </trkpt>
      <trkpt lat="46.67226" lon="-1.86451">
        <ele>10</ele>
        <time>2018-03-19T13:02:04Z</time>
      </trkpt>
      <trkpt lat="46.67181" lon="-1.866">
        <ele>8</ele>
        <time>2018-03-19T13:03:04Z</time>
      </trkpt>
      <trkpt lat="46.6717" lon="-1.86646">
        <ele>8</ele>
        <time>2018-03-19T13:04:04Z</time>
      </trkpt>
      <trkpt lat="46.67166" lon="-1.8668">
        <ele>8</ele>
        <time>2018-03-19T13:05:04Z</time>
      </trkpt>
      <trkpt lat="46.67164" lon="-1.86733">
        <ele>6</ele>
        <time>2018-03-19T13:06:04Z</time>
      </trkpt>
      <trkpt lat="46.67168" lon="-1.86784">
        <ele>5</ele>
        <time>2018-03-19T13:07:04Z</time>
      </trkpt>
      <trkpt lat="46.67172" lon="-1.86801">
        <ele>4</ele>
        <time>2018-03-19T13:08:04Z</time>
      </trkpt>
      <trkpt lat="46.67181" lon="-1.86824">
        <ele>4</ele>
        <time>2018-03-19T13:09:04Z</time>
      </trkpt>
      <trkpt lat="46.67253" lon="-1.86963">
        <ele>5</ele>
        <time>2018-03-19T13:10:04Z</time>
      </trkpt>
      <trkpt lat="46.67264" lon="-1.86989">
        <ele>7</ele>
        <time>2018-03-19T13:11:04Z</time>
      </trkpt>
      <trkpt lat="46.6727" lon="-1.87011">
        <ele>8</ele>
        <time>2018-03-19T13:12:04Z</time>
      </trkpt>
      <trkpt lat="46.67271" lon="-1.87033">
        <ele>8</ele>
        <time>2018-03-19T13:13:04Z</time>
      </trkpt>
      <trkpt lat="46.67268" lon="-1.87123">
        <ele>9</ele>
        <time>2018-03-19T13:14:04Z</time>
      </trkpt>
      <trkpt lat="46.67268" lon="-1.87123">
        <ele>9</ele>
        <time>2018-03-19T13:15:04Z</time>
      </trkpt>
      <trkpt lat="46.67248" lon="-1.87379">
        <ele>11</ele>
        <time>2018-03-19T13:16:04Z</time>
      </trkpt>
      <trkpt lat="46.6722" lon="-1.87617">
        <ele>11</ele>
        <time>2018-03-19T13:17:04Z</time>
      </trkpt>
      <trkpt lat="46.67215" lon="-1.87696">
        <ele>11</ele>
        <time>2018-03-19T13:18:04Z</time>
      </trkpt>
      <trkpt lat="46.67212" lon="-1.87901">
        <ele>10</ele>
        <time>2018-03-19T13:19:04Z</time>
      </trkpt>
      <trkpt lat="46.67184" lon="-1.88096">
        <ele>9</ele>
        <time>2018-03-19T13:20:04Z</time>
      </trkpt>
      <trkpt lat="46.67177" lon="-1.88153">
        <ele>8</ele>
        <time>2018-03-19T13:21:04Z</time>
      </trkpt>
      <trkpt lat="46.67168" lon="-1.88197">
        <ele>7</ele>
        <time>2018-03-19T13:22:04Z</time>
      </trkpt>
      <trkpt lat="46.67173" lon="-1.88204">
        <ele>8</ele>
        <time>2018-03-19T13:23:04Z</time>
      </trkpt>
      <trkpt lat="46.67174" lon="-1.88214">
        <ele>8</ele>
        <time>2018-03-19T13:24:04Z</time>
      </trkpt>
      <trkpt lat="46.67168" lon="-1.88223">
        <ele>8</ele>
        <time>2018-03-19T13:25:04Z</time>
      </trkpt>
      <trkpt lat="46.6716" lon="-1.88223">
        <ele>8</ele>
        <time>2018-03-19T13:26:04Z</time>
      </trkpt>
      <trkpt lat="46.6714" lon="-1.88295">
        <ele>9</ele>
        <time>2018-03-19T13:27:04Z</time>
      </trkpt>
      <trkpt lat="46.67138" lon="-1.88325">
        <ele>9</ele>
        <time>2018-03-19T13:28:04Z</time>
      </trkpt>
      <trkpt lat="46.67137" lon="-1.88372">
        <ele>9</ele>
        <time>2018-03-19T13:29:04Z</time>
      </trkpt>
      <trkpt lat="46.67135" lon="-1.88394">
        <ele>10</ele>
        <time>2018-03-19T13:30:04Z</time>
      </trkpt>
      <trkpt lat="46.6706" lon="-1.88725">
        <ele>11</ele>
        <time>2018-03-19T13:31:04Z</time>
      </trkpt>
      <trkpt lat="46.67066" lon="-1.88733">
        <ele>11</ele>
        <time>2018-03-19T13:32:04Z</time>
      </trkpt>
      <trkpt lat="46.67066" lon="-1.88745">
        <ele>11</ele>
        <time>2018-03-19T13:33:04Z</time>
      </trkpt>
      <trkpt lat="46.67063" lon="-1.8875">
        <ele>11</ele>
        <time>2018-03-19T13:34:04Z</time>
      </trkpt>
      <trkpt lat="46.67059" lon="-1.88753">
        <ele>11</ele>
        <time>2018-03-19T13:35:04Z</time>
      </trkpt>
      <trkpt lat="46.67055" lon="-1.88753">
        <ele>11</ele>
        <time>2018-03-19T13:36:04Z</time>
      </trkpt>
      <trkpt lat="46.67052" lon="-1.88763">
        <ele>11</ele>
        <time>2018-03-19T13:37:04Z</time>
      </trkpt>
      <trkpt lat="46.67007" lon="-1.88966">
        <ele>7</ele>
        <time>2018-03-19T13:38:04Z</time>
      </trkpt>
      <trkpt lat="46.67007" lon="-1.88966">
        <ele>7</ele>
        <time>2018-03-19T13:39:04Z</time>
      </trkpt>
      <trkpt lat="46.66999" lon="-1.89002">
        <ele>7</ele>
        <time>2018-03-19T13:40:04Z</time>
      </trkpt>
      <trkpt lat="46.66999" lon="-1.8903">
        <ele>8</ele>
        <time>2018-03-19T13:41:04Z</time>
      </trkpt>
      <trkpt lat="46.66994" lon="-1.8906">
        <ele>8</ele>
        <time>2018-03-19T13:42:04Z</time>
      </trkpt>
      <trkpt lat="46.66979" lon="-1.89091">
        <ele>9</ele>
        <time>2018-03-19T13:43:04Z</time>
      </trkpt>
      <trkpt lat="46.66923" lon="-1.89262">
        <ele>11</ele>
        <time>2018-03-19T13:44:04Z</time>
      </trkpt>
      <trkpt lat="46.66926" lon="-1.89265">
        <ele>11</ele>
        <time>2018-03-19T13:45:04Z</time>
      </trkpt>
      <trkpt lat="46.66929" lon="-1.89273">
        <ele>11</ele>
        <time>2018-03-19T13:46:04Z</time>
      </trkpt>
      <trkpt lat="46.66928" lon="-1.89283">
        <ele>11</ele>
        <time>2018-03-19T13:47:04Z</time>
      </trkpt>
      <trkpt lat="46.66922" lon="-1.89291">
        <ele>11</ele>
        <time>2018-03-19T13:48:04Z</time>
      </trkpt>
      <trkpt lat="46.66918" lon="-1.89292">
        <ele>11</ele>
        <time>2018-03-19T13:49:04Z</time>
      </trkpt>
      <trkpt lat="46.66913" lon="-1.89291">
        <ele>11</ele>
        <time>2018-03-19T13:50:04Z</time>
      </trkpt>
      <trkpt lat="46.66899" lon="-1.89335">
        <ele>11</ele>
        <time>2018-03-19T13:51:04Z</time>
      </trkpt>
      <trkpt lat="46.66888" lon="-1.89386">
        <ele>12</ele>
        <time>2018-03-19T13:52:04Z</time>
      </trkpt>
      <trkpt lat="46.66884" lon="-1.89425">
        <ele>12</ele>
        <time>2018-03-19T13:53:04Z</time>
      </trkpt>
      <trkpt lat="46.66885" lon="-1.89452">
        <ele>12</ele>
        <time>2018-03-19T13:54:04Z</time>
      </trkpt>
      <trkpt lat="46.66889" lon="-1.89501">
        <ele>12</ele>
        <time>2018-03-19T13:55:04Z</time>
      </trkpt>
      <trkpt lat="46.6698" lon="-1.90201">
        <ele>8</ele>
        <time>2018-03-19T13:56:04Z</time>
      </trkpt>
      <trkpt lat="46.66994" lon="-1.90293">
        <ele>6</ele>
        <time>2018-03-19T13:57:04Z</time>
      </trkpt>
      <trkpt lat="46.66995" lon="-1.90309">
        <ele>6</ele>
        <time>2018-03-19T13:58:04Z</time>
      </trkpt>
      <trkpt lat="46.67002" lon="-1.90323">
        <ele>6</ele>
        <time>2018-03-19T13:59:04Z</time>
      </trkpt>
      <trkpt lat="46.67002" lon="-1.9034">
        <ele>6</ele>
        <time>2018-03-19T14:00:04Z</time>
      </trkpt>
      <trkpt lat="46.66998" lon="-1.9035">
        <ele>6</ele>
        <time>2018-03-19T14:01:04Z</time>
      </trkpt>
      <trkpt lat="46.67004" lon="-1.90377">
        <ele>6</ele>
        <time>2018-03-19T14:02:04Z</time>
      </trkpt>
      <trkpt lat="46.67011" lon="-1.90391">
        <ele>5</ele>
        <time>2018-03-19T14:03:04Z</time>
      </trkpt>
      <trkpt lat="46.67058" lon="-1.9045">
        <ele>5</ele>
        <time>2018-03-19T14:04:04Z</time>
      </trkpt>
      <trkpt lat="46.67089" lon="-1.90499">
        <ele>5</ele>
        <time>2018-03-19T14:05:04Z</time>
      </trkpt>
      <trkpt lat="46.67116" lon="-1.90534">
        <ele>5</ele>
        <time>2018-03-19T14:06:04Z</time>
      </trkpt>
      <trkpt lat="46.67268" lon="-1.90748">
        <ele>3</ele>
        <time>2018-03-19T14:07:04Z</time>
      </trkpt>
      <trkpt lat="46.67268" lon="-1.90748">
        <ele>3</ele>
        <time>2018-03-19T14:08:04Z</time>
      </trkpt>
      <trkpt lat="46.67311" lon="-1.9081">
        <ele>2</ele>
        <time>2018-03-19T14:09:04Z</time>
      </trkpt>
      <trkpt lat="46.67342" lon="-1.9085">
        <ele>2</ele>
        <time>2018-03-19T14:10:04Z</time>
      </trkpt>
      <trkpt lat="46.67354" lon="-1.90864">
        <ele>2</ele>
        <time>2018-03-19T14:11:04Z</time>
      </trkpt>
      <trkpt lat="46.67399" lon="-1.90901">
        <ele>3</ele>
        <time>2018-03-19T14:12:04Z</time>
      </trkpt>
      <trkpt lat="46.67421" lon="-1.90912">
        <ele>3</ele>
        <time>2018-03-19T14:13:04Z</time>
      </trkpt>
      <trkpt lat="46.67429" lon="-1.90912">
        <ele>3</ele>
        <time>2018-03-19T14:14:04Z</time>
      </trkpt>
      <trkpt lat="46.67437" lon="-1.90909">
        <ele>3</ele>
        <time>2018-03-19T14:15:04Z</time>
      </trkpt>
      <trkpt lat="46.67446" lon="-1.90912">
        <ele>3</ele>
        <time>2018-03-19T14:16:04Z</time>
      </trkpt>
      <trkpt lat="46.67454" lon="-1.90919">
        <ele>3</ele>
        <time>2018-03-19T14:17:04Z</time>
      </trkpt>
      <trkpt lat="46.67459" lon="-1.90931">
        <ele>4</ele>
        <time>2018-03-19T14:18:04Z</time>
      </trkpt>
      <trkpt lat="46.6746" lon="-1.90947">
        <ele>4</ele>
        <time>2018-03-19T14:19:04Z</time>
      </trkpt>
      <trkpt lat="46.67456" lon="-1.9096">
        <ele>4</ele>
        <time>2018-03-19T14:20:04Z</time>
      </trkpt>
      <trkpt lat="46.67449" lon="-1.9097">
        <ele>4</ele>
        <time>2018-03-19T14:21:04Z</time>
      </trkpt>
      <trkpt lat="46.6745" lon="-1.91001">
        <ele>4</ele>
        <time>2018-03-19T14:22:04Z</time>
      </trkpt>
      <trkpt lat="46.67454" lon="-1.91009">
        <ele>4</ele>
        <time>2018-03-19T14:23:04Z</time>
      </trkpt>
      <trkpt lat="46.68004" lon="-1.91789">
        <ele>8</ele>
        <time>2018-03-19T14:24:04Z</time>
      </trkpt>
      <trkpt lat="46.68004" lon="-1.91789">
        <ele>8</ele>
        <time>2018-03-19T14:25:04Z</time>
      </trkpt>
      <trkpt lat="46.68157" lon="-1.92004">
        <ele>8</ele>
        <time>2018-03-19T14:26:04Z</time>
      </trkpt>
      <trkpt lat="46.68276" lon="-1.92176">
        <ele>8</ele>
        <time>2018-03-19T14:27:04Z</time>
      </trkpt>
      <trkpt lat="46.68304" lon="-1.92221">
        <ele>9</ele>
        <time>2018-03-19T14:28:04Z</time>
      </trkpt>
      <trkpt lat="46.68387" lon="-1.92365">
        <ele>10</ele>
        <time>2018-03-19T14:29:04Z</time>
      </trkpt>
      <trkpt lat="46.68401" lon="-1.92386">
        <ele>10</ele>
        <time>2018-03-19T14:30:04Z</time>
      </trkpt>
      <trkpt lat="46.68415" lon="-1.92395">
        <ele>10</ele>
        <time>2018-03-19T14:31:04Z</time>
      </trkpt>
      <trkpt lat="46.68452" lon="-1.92402">
        <ele>10</ele>
        <time>2018-03-19T14:32:04Z</time>
      </trkpt>
      <trkpt lat="46.68477" lon="-1.92411">
        <ele>10</ele>
        <time>2018-03-19T14:33:04Z</time>
      </trkpt>
      <trkpt lat="46.68495" lon="-1.92421">
        <ele>10</ele>
        <time>2018-03-19T14:34:04Z</time>
      </trkpt>
      <trkpt lat="46.68533" lon="-1.92462">
        <ele>10</ele>
        <time>2018-03-19T14:35:04Z</time>
      </trkpt>
      <trkpt lat="46.68626" lon="-1.92579">
        <ele>10</ele>
        <time>2018-03-19T14:36:04Z</time>
      </trkpt>
      <trkpt lat="46.68666" lon="-1.92613">
        <ele>10</ele>
        <time>2018-03-19T14:37:04Z</time>
      </trkpt>
      <trkpt lat="46.68733" lon="-1.92655">
        <ele>8</ele>
        <time>2018-03-19T14:38:04Z</time>
      </trkpt>
      <trkpt lat="46.68774" lon="-1.92675">
        <ele>8</ele>
        <time>2018-03-19T14:39:04Z</time>
      </trkpt>
      <trkpt lat="46.68799" lon="-1.92684">
        <ele>7</ele>
        <time>2018-03-19T14:40:04Z</time>
      </trkpt>
      <trkpt lat="46.68799" lon="-1.92684">
        <ele>7</ele>
        <time>2018-03-19T14:41:04Z</time>
      </trkpt>
      <trkpt lat="46.68817" lon="-1.92693">
        <ele>7</ele>
        <time>2018-03-19T14:42:04Z</time>
      </trkpt>
      <trkpt lat="46.68818" lon="-1.9269">
        <ele>7</ele>
        <time>2018-03-19T14:43:04Z</time>
      </trkpt>
      <trkpt lat="46.68824" lon="-1.92688">
        <ele>7</ele>
        <time>2018-03-19T14:44:04Z</time>
      </trkpt>
      <trkpt lat="46.68839" lon="-1.92689">
        <ele>7</ele>
        <time>2018-03-19T14:45:04Z</time>
      </trkpt>
      <trkpt lat="46.6884" lon="-1.92686">
        <ele>7</ele>
        <time>2018-03-19T14:46:04Z</time>
      </trkpt>
      <trkpt lat="46.68847" lon="-1.92683">
        <ele>6</ele>
        <time>2018-03-19T14:47:04Z</time>
      </trkpt>
      <trkpt lat="46.68852" lon="-1.92689">
        <ele>6</ele>
        <time>2018-03-19T14:48:04Z</time>
      </trkpt>
      <trkpt lat="46.68851" lon="-1.92699">
        <ele>6</ele>
        <time>2018-03-19T14:49:04Z</time>
      </trkpt>
      <trkpt lat="46.68924" lon="-1.92732">
        <ele>4</ele>
        <time>2018-03-19T14:50:04Z</time>
      </trkpt>
      <trkpt lat="46.68951" lon="-1.92754">
        <ele>4</ele>
        <time>2018-03-19T14:51:04Z</time>
      </trkpt>
      <trkpt lat="46.69068" lon="-1.92911">
        <ele>4</ele>
        <time>2018-03-19T14:52:04Z</time>
      </trkpt>
      <trkpt lat="46.69119" lon="-1.92964">
        <ele>4</ele>
        <time>2018-03-19T14:53:04Z</time>
      </trkpt>
      <trkpt lat="46.69223" lon="-1.93056">
        <ele>5</ele>
        <time>2018-03-19T14:54:04Z</time>
      </trkpt>
      <trkpt lat="46.69313" lon="-1.93139">
        <ele>5</ele>
        <time>2018-03-19T14:55:04Z</time>
      </trkpt>
      <trkpt lat="46.69335" lon="-1.93175">
        <ele>5</ele>
        <time>2018-03-19T14:56:04Z</time>
      </trkpt>
      <trkpt lat="46.69346" lon="-1.93199">
        <ele>5</ele>
        <time>2018-03-19T14:57:04Z</time>
      </trkpt>
      <trkpt lat="46.69368" lon="-1.93269">
        <ele>4</ele>
        <time>2018-03-19T14:58:04Z</time>
      </trkpt>
      <trkpt lat="46.69374" lon="-1.93297">
        <ele>4</ele>
        <time>2018-03-19T14:59:04Z</time>
      </trkpt>
      <trkpt lat="46.69379" lon="-1.93308">
        <ele>4</ele>
        <time>2018-03-19T15:00:04Z</time>
      </trkpt>
      <trkpt lat="46.69385" lon="-1.93317">
        <ele>4</ele>
        <time>2018-03-19T15:01:04Z</time>
      </trkpt>
      <trkpt lat="46.69391" lon="-1.93319">
        <ele>4</ele>
        <time>2018-03-19T15:02:04Z</time>
      </trkpt>
      <trkpt lat="46.69394" lon="-1.93327">
        <ele>4</ele>
        <time>2018-03-19T15:03:04Z</time>
      </trkpt>
      <trkpt lat="46.69393" lon="-1.93333">
        <ele>4</ele>
        <time>2018-03-19T15:04:04Z</time>
      </trkpt>
      <trkpt lat="46.6939" lon="-1.93338">
        <ele>4</ele>
        <time>2018-03-19T15:05:04Z</time>
      </trkpt>
      <trkpt lat="46.69384" lon="-1.93339">
        <ele>4</ele>
        <time>2018-03-19T15:06:04Z</time>
      </trkpt>
      <trkpt lat="46.69383" lon="-1.93352">
        <ele>4</ele>
        <time>2018-03-19T15:07:04Z</time>
      </trkpt>
      <trkpt lat="46.6939" lon="-1.93352">
        <ele>4</ele>
        <time>2018-03-19T15:08:04Z</time>
      </trkpt>
      <trkpt lat="46.69395" lon="-1.93344">
        <ele>4</ele>
        <time>2018-03-19T15:09:04Z</time>
      </trkpt>
      <trkpt lat="46.69401" lon="-1.93341">
        <ele>4</ele>
        <time>2018-03-19T15:10:04Z</time>
      </trkpt>
      <trkpt lat="46.69413" lon="-1.93343">
        <ele>4</ele>
        <time>2018-03-19T15:11:04Z</time>
      </trkpt>
      <trkpt lat="46.69517" lon="-1.93383">
        <ele>4</ele>
        <time>2018-03-19T15:12:04Z</time>
      </trkpt>
      <trkpt lat="46.69525" lon="-1.9339">
        <ele>4</ele>
        <time>2018-03-19T15:13:04Z</time>
      </trkpt>
      <trkpt lat="46.69579" lon="-1.93414">
        <ele>4</ele>
        <time>2018-03-19T15:14:04Z</time>
      </trkpt>
      <trkpt lat="46.69586" lon="-1.93414">
        <ele>4</ele>
        <time>2018-03-19T15:15:04Z</time>
      </trkpt>
      <trkpt lat="46.69605" lon="-1.93424">
        <ele>4</ele>
        <time>2018-03-19T15:16:04Z</time>
      </trkpt>
      <trkpt lat="46.69607" lon="-1.93417">
        <ele>4</ele>
        <time>2018-03-19T15:17:04Z</time>
      </trkpt>
      <trkpt lat="46.69617" lon="-1.93422">
        <ele>4</ele>
        <time>2018-03-19T15:18:04Z</time>
      </trkpt>
      <trkpt lat="46.69619" lon="-1.93416">
        <ele>4</ele>
        <time>2018-03-19T15:19:04Z</time>
      </trkpt>
      <trkpt lat="46.69624" lon="-1.93414">
        <ele>5</ele>
        <time>2018-03-19T15:20:04Z</time>
      </trkpt>
      <trkpt lat="46.69627" lon="-1.93415">
        <ele>5</ele>
        <time>2018-03-19T15:21:04Z</time>
      </trkpt>
      <trkpt lat="46.69631" lon="-1.93425">
        <ele>4</ele>
        <time>2018-03-19T15:22:04Z</time>
      </trkpt>
      <trkpt lat="46.69667" lon="-1.93431">
        <ele>5</ele>
        <time>2018-03-19T15:23:04Z</time>
      </trkpt>
      <trkpt lat="46.69684" lon="-1.93436">
        <ele>5</ele>
        <time>2018-03-19T15:24:04Z</time>
      </trkpt>
      <trkpt lat="46.69709" lon="-1.93437">
        <ele>5</ele>
        <time>2018-03-19T15:25:04Z</time>
      </trkpt>
      <trkpt lat="46.69724" lon="-1.93434">
        <ele>5</ele>
        <time>2018-03-19T15:26:04Z</time>
      </trkpt>
      <trkpt lat="46.69725" lon="-1.93446">
        <ele>4</ele>
        <time>2018-03-19T15:27:04Z</time>
      </trkpt>
      <trkpt lat="46.69727" lon="-1.93453">
        <ele>4</ele>
        <time>2018-03-19T15:28:04Z</time>
      </trkpt>
      <trkpt lat="46.69748" lon="-1.93462">
        <ele>4</ele>
        <time>2018-03-19T15:29:04Z</time>
      </trkpt>
      <trkpt lat="46.69764" lon="-1.93458">
        <ele>4</ele>
        <time>2018-03-19T15:30:04Z</time>
      </trkpt>
      <trkpt lat="46.69796" lon="-1.93446">
        <ele>4</ele>
        <time>2018-03-19T15:31:04Z</time>
      </trkpt>
      <trkpt lat="46.69824" lon="-1.9344">
        <ele>4</ele>
        <time>2018-03-19T15:32:04Z</time>
      </trkpt>
      <trkpt lat="46.69832" lon="-1.93435">
        <ele>5</ele>
        <time>2018-03-19T15:33:04Z</time>
      </trkpt>
      <trkpt lat="46.69842" lon="-1.93433">
        <ele>4</ele>
        <time>2018-03-19T15:34:04Z</time>
      </trkpt>
      <trkpt lat="46.69856" lon="-1.93435">
        <ele>4</ele>
        <time>2018-03-19T15:35:04Z</time>
      </trkpt>
      <trkpt lat="46.69879" lon="-1.93428">
        <ele>4</ele>
        <time>2018-03-19T15:36:04Z</time>
      </trkpt>
    </trkseg>
  </trk>
</gpx>